<?xml version="1.0" encoding="UTF-8" standalone="no" ?>
<gpx xmlns="http://www.topografix.com/GPX/1/1" xmlns:xsi="http://www.w3.org/2001/XMLSchema-instance" xsi:schemaLocation="http://www.topografix.com/GPX/1/1 http://www.topografix.com/GPX/1/1/gpx.xsd" version="1.1" creator="VisuGPX - https://www.visugpx.com">
  <metadata>
    <name>La Tête du Torraz (Aravis)</name>
    <desc><![CDATA[Départ du Plan de la Giettaz.
Photos et commentaires sur : [url]http://www.photosrandos.fr[/url]]]></desc>
  </metadata>
  <trk>
    <name><![CDATA[18 déc. 2018]]></name>
    <cmt><![CDATA[10:10:45]]></cmt>
    <desc><![CDATA[comment ...]]></desc>
    <trkseg>
      <trkpt lat="45.87866" lon="6.5254">
        <ele>1212</ele>
        <time>2018-12-18T09:14:25Z</time>
      </trkpt>
      <trkpt lat="45.8785" lon="6.52538">
        <ele>1212</ele>
        <time>2018-12-18T09:14:39Z</time>
      </trkpt>
      <trkpt lat="45.87843" lon="6.52555">
        <ele>1212</ele>
        <time>2018-12-18T09:15:01Z</time>
      </trkpt>
      <trkpt lat="45.87849" lon="6.52576">
        <ele>1214</ele>
        <time>2018-12-18T09:15:20Z</time>
      </trkpt>
      <trkpt lat="45.87845" lon="6.5261">
        <ele>1213</ele>
        <time>2018-12-18T09:15:49Z</time>
      </trkpt>
      <trkpt lat="45.87851" lon="6.52621">
        <ele>1213</ele>
        <time>2018-12-18T09:16:02Z</time>
      </trkpt>
      <trkpt lat="45.87856" lon="6.52636">
        <ele>1214</ele>
        <time>2018-12-18T09:16:16Z</time>
      </trkpt>
      <trkpt lat="45.8786" lon="6.52659">
        <ele>1217</ele>
        <time>2018-12-18T09:16:33Z</time>
      </trkpt>
      <trkpt lat="45.87863" lon="6.52669">
        <ele>1217</ele>
        <time>2018-12-18T09:16:44Z</time>
      </trkpt>
      <trkpt lat="45.87867" lon="6.52678">
        <ele>1216</ele>
        <time>2018-12-18T09:16:53Z</time>
      </trkpt>
      <trkpt lat="45.87867" lon="6.5269">
        <ele>1216</ele>
        <time>2018-12-18T09:17:02Z</time>
      </trkpt>
      <trkpt lat="45.87869" lon="6.527">
        <ele>1216</ele>
        <time>2018-12-18T09:17:09Z</time>
      </trkpt>
      <trkpt lat="45.87863" lon="6.52713">
        <ele>1216</ele>
        <time>2018-12-18T09:17:19Z</time>
      </trkpt>
      <trkpt lat="45.87863" lon="6.52723">
        <ele>1217</ele>
        <time>2018-12-18T09:17:29Z</time>
      </trkpt>
      <trkpt lat="45.87863" lon="6.52741">
        <ele>1219</ele>
        <time>2018-12-18T09:17:50Z</time>
      </trkpt>
      <trkpt lat="45.87868" lon="6.52749">
        <ele>1220</ele>
        <time>2018-12-18T09:18:06Z</time>
      </trkpt>
      <trkpt lat="45.8787" lon="6.5276">
        <ele>1223</ele>
        <time>2018-12-18T09:18:17Z</time>
      </trkpt>
      <trkpt lat="45.87874" lon="6.52769">
        <ele>1224</ele>
        <time>2018-12-18T09:18:27Z</time>
      </trkpt>
      <trkpt lat="45.87877" lon="6.52777">
        <ele>1225</ele>
        <time>2018-12-18T09:18:35Z</time>
      </trkpt>
      <trkpt lat="45.8788" lon="6.52786">
        <ele>1227</ele>
        <time>2018-12-18T09:18:48Z</time>
      </trkpt>
      <trkpt lat="45.87881" lon="6.52798">
        <ele>1229</ele>
        <time>2018-12-18T09:19:01Z</time>
      </trkpt>
      <trkpt lat="45.87883" lon="6.52808">
        <ele>1232</ele>
        <time>2018-12-18T09:19:20Z</time>
      </trkpt>
      <trkpt lat="45.87881" lon="6.52818">
        <ele>1234</ele>
        <time>2018-12-18T09:19:31Z</time>
      </trkpt>
      <trkpt lat="45.8788" lon="6.52826">
        <ele>1237</ele>
        <time>2018-12-18T09:19:45Z</time>
      </trkpt>
      <trkpt lat="45.87884" lon="6.52836">
        <ele>1238</ele>
        <time>2018-12-18T09:19:59Z</time>
      </trkpt>
      <trkpt lat="45.87882" lon="6.52846">
        <ele>1240</ele>
        <time>2018-12-18T09:20:13Z</time>
      </trkpt>
      <trkpt lat="45.87878" lon="6.52853">
        <ele>1241</ele>
        <time>2018-12-18T09:20:20Z</time>
      </trkpt>
      <trkpt lat="45.87879" lon="6.52861">
        <ele>1243</ele>
        <time>2018-12-18T09:20:40Z</time>
      </trkpt>
      <trkpt lat="45.87878" lon="6.52869">
        <ele>1245</ele>
        <time>2018-12-18T09:20:51Z</time>
      </trkpt>
      <trkpt lat="45.87873" lon="6.52875">
        <ele>1247</ele>
        <time>2018-12-18T09:20:58Z</time>
      </trkpt>
      <trkpt lat="45.87874" lon="6.52883">
        <ele>1248</ele>
        <time>2018-12-18T09:21:09Z</time>
      </trkpt>
      <trkpt lat="45.87873" lon="6.52892">
        <ele>1249</ele>
        <time>2018-12-18T09:21:19Z</time>
      </trkpt>
      <trkpt lat="45.87869" lon="6.52899">
        <ele>1251</ele>
        <time>2018-12-18T09:21:30Z</time>
      </trkpt>
      <trkpt lat="45.87866" lon="6.52905">
        <ele>1253</ele>
        <time>2018-12-18T09:21:39Z</time>
      </trkpt>
      <trkpt lat="45.87864" lon="6.52916">
        <ele>1256</ele>
        <time>2018-12-18T09:22:11Z</time>
      </trkpt>
      <trkpt lat="45.87849" lon="6.52918">
        <ele>1261</ele>
        <time>2018-12-18T09:22:28Z</time>
      </trkpt>
      <trkpt lat="45.87842" lon="6.52916">
        <ele>1261</ele>
        <time>2018-12-18T09:22:48Z</time>
      </trkpt>
      <trkpt lat="45.87835" lon="6.5291">
        <ele>1261</ele>
        <time>2018-12-18T09:23:06Z</time>
      </trkpt>
      <trkpt lat="45.87827" lon="6.52908">
        <ele>1261</ele>
        <time>2018-12-18T09:23:11Z</time>
      </trkpt>
      <trkpt lat="45.87829" lon="6.52919">
        <ele>1266</ele>
        <time>2018-12-18T09:23:57Z</time>
      </trkpt>
      <trkpt lat="45.87831" lon="6.5293">
        <ele>1272</ele>
        <time>2018-12-18T09:24:14Z</time>
      </trkpt>
      <trkpt lat="45.8783" lon="6.52941">
        <ele>1276</ele>
        <time>2018-12-18T09:24:30Z</time>
      </trkpt>
      <trkpt lat="45.87823" lon="6.52947">
        <ele>1279</ele>
        <time>2018-12-18T09:24:50Z</time>
      </trkpt>
      <trkpt lat="45.87816" lon="6.52945">
        <ele>1280</ele>
        <time>2018-12-18T09:25:00Z</time>
      </trkpt>
      <trkpt lat="45.87809" lon="6.52949">
        <ele>1283</ele>
        <time>2018-12-18T09:25:20Z</time>
      </trkpt>
      <trkpt lat="45.878" lon="6.52942">
        <ele>1285</ele>
        <time>2018-12-18T09:25:46Z</time>
      </trkpt>
      <trkpt lat="45.87793" lon="6.5294">
        <ele>1291</ele>
        <time>2018-12-18T09:26:17Z</time>
      </trkpt>
      <trkpt lat="45.87785" lon="6.52946">
        <ele>1293</ele>
        <time>2018-12-18T09:26:41Z</time>
      </trkpt>
      <trkpt lat="45.87779" lon="6.52951">
        <ele>1296</ele>
        <time>2018-12-18T09:26:50Z</time>
      </trkpt>
      <trkpt lat="45.87774" lon="6.52959">
        <ele>1297</ele>
        <time>2018-12-18T09:27:07Z</time>
      </trkpt>
      <trkpt lat="45.87774" lon="6.5297">
        <ele>1298</ele>
        <time>2018-12-18T09:27:15Z</time>
      </trkpt>
      <trkpt lat="45.87773" lon="6.5298">
        <ele>1299</ele>
        <time>2018-12-18T09:27:30Z</time>
      </trkpt>
      <trkpt lat="45.87767" lon="6.52985">
        <ele>1300</ele>
        <time>2018-12-18T09:28:01Z</time>
      </trkpt>
      <trkpt lat="45.8776" lon="6.52983">
        <ele>1301</ele>
        <time>2018-12-18T09:28:23Z</time>
      </trkpt>
      <trkpt lat="45.87752" lon="6.52974">
        <ele>1304</ele>
        <time>2018-12-18T09:28:40Z</time>
      </trkpt>
      <trkpt lat="45.87747" lon="6.52966">
        <ele>1307</ele>
        <time>2018-12-18T09:28:53Z</time>
      </trkpt>
      <trkpt lat="45.8774" lon="6.52961">
        <ele>1311</ele>
        <time>2018-12-18T09:29:25Z</time>
      </trkpt>
      <trkpt lat="45.87732" lon="6.52964">
        <ele>1314</ele>
        <time>2018-12-18T09:29:59Z</time>
      </trkpt>
      <trkpt lat="45.87731" lon="6.52972">
        <ele>1319</ele>
        <time>2018-12-18T09:30:15Z</time>
      </trkpt>
      <trkpt lat="45.87732" lon="6.52981">
        <ele>1322</ele>
        <time>2018-12-18T09:30:33Z</time>
      </trkpt>
      <trkpt lat="45.87729" lon="6.52991">
        <ele>1323</ele>
        <time>2018-12-18T09:30:44Z</time>
      </trkpt>
      <trkpt lat="45.87721" lon="6.52993">
        <ele>1326</ele>
        <time>2018-12-18T09:30:56Z</time>
      </trkpt>
      <trkpt lat="45.8772" lon="6.52985">
        <ele>1327</ele>
        <time>2018-12-18T09:31:10Z</time>
      </trkpt>
      <trkpt lat="45.8772" lon="6.52977">
        <ele>1329</ele>
        <time>2018-12-18T09:31:19Z</time>
      </trkpt>
      <trkpt lat="45.87714" lon="6.52973">
        <ele>1330</ele>
        <time>2018-12-18T09:31:30Z</time>
      </trkpt>
      <trkpt lat="45.8771" lon="6.52968">
        <ele>1330</ele>
        <time>2018-12-18T09:31:39Z</time>
      </trkpt>
      <trkpt lat="45.87704" lon="6.5296">
        <ele>1329</ele>
        <time>2018-12-18T09:31:56Z</time>
      </trkpt>
      <trkpt lat="45.87698" lon="6.52951">
        <ele>1327</ele>
        <time>2018-12-18T09:32:06Z</time>
      </trkpt>
      <trkpt lat="45.87695" lon="6.52942">
        <ele>1328</ele>
        <time>2018-12-18T09:32:16Z</time>
      </trkpt>
      <trkpt lat="45.87684" lon="6.52927">
        <ele>1329</ele>
        <time>2018-12-18T09:32:30Z</time>
      </trkpt>
      <trkpt lat="45.87678" lon="6.52921">
        <ele>1330</ele>
        <time>2018-12-18T09:32:38Z</time>
      </trkpt>
      <trkpt lat="45.87671" lon="6.52917">
        <ele>1331</ele>
        <time>2018-12-18T09:32:46Z</time>
      </trkpt>
      <trkpt lat="45.87664" lon="6.52918">
        <ele>1332</ele>
        <time>2018-12-18T09:32:59Z</time>
      </trkpt>
      <trkpt lat="45.8766" lon="6.52925">
        <ele>1336</ele>
        <time>2018-12-18T09:33:13Z</time>
      </trkpt>
      <trkpt lat="45.87661" lon="6.52933">
        <ele>1338</ele>
        <time>2018-12-18T09:33:26Z</time>
      </trkpt>
      <trkpt lat="45.87657" lon="6.52941">
        <ele>1342</ele>
        <time>2018-12-18T09:33:36Z</time>
      </trkpt>
      <trkpt lat="45.87653" lon="6.52949">
        <ele>1344</ele>
        <time>2018-12-18T09:33:46Z</time>
      </trkpt>
      <trkpt lat="45.87656" lon="6.52959">
        <ele>1346</ele>
        <time>2018-12-18T09:34:00Z</time>
      </trkpt>
      <trkpt lat="45.87658" lon="6.52969">
        <ele>1349</ele>
        <time>2018-12-18T09:34:16Z</time>
      </trkpt>
      <trkpt lat="45.87659" lon="6.52977">
        <ele>1352</ele>
        <time>2018-12-18T09:34:32Z</time>
      </trkpt>
      <trkpt lat="45.8766" lon="6.52985">
        <ele>1354</ele>
        <time>2018-12-18T09:34:47Z</time>
      </trkpt>
      <trkpt lat="45.87644" lon="6.52986">
        <ele>1354</ele>
        <time>2018-12-18T09:35:01Z</time>
      </trkpt>
      <trkpt lat="45.87646" lon="6.52998">
        <ele>1355</ele>
        <time>2018-12-18T09:35:20Z</time>
      </trkpt>
      <trkpt lat="45.87639" lon="6.52996">
        <ele>1357</ele>
        <time>2018-12-18T09:35:38Z</time>
      </trkpt>
      <trkpt lat="45.8764" lon="6.53006">
        <ele>1361</ele>
        <time>2018-12-18T09:35:55Z</time>
      </trkpt>
      <trkpt lat="45.87633" lon="6.53006">
        <ele>1363</ele>
        <time>2018-12-18T09:36:09Z</time>
      </trkpt>
      <trkpt lat="45.87625" lon="6.53007">
        <ele>1364</ele>
        <time>2018-12-18T09:36:20Z</time>
      </trkpt>
      <trkpt lat="45.87618" lon="6.53005">
        <ele>1369</ele>
        <time>2018-12-18T09:36:41Z</time>
      </trkpt>
      <trkpt lat="45.87616" lon="6.53015">
        <ele>1370</ele>
        <time>2018-12-18T09:36:57Z</time>
      </trkpt>
      <trkpt lat="45.87613" lon="6.53025">
        <ele>1374</ele>
        <time>2018-12-18T09:37:11Z</time>
      </trkpt>
      <trkpt lat="45.87606" lon="6.53023">
        <ele>1374</ele>
        <time>2018-12-18T09:37:20Z</time>
      </trkpt>
      <trkpt lat="45.876" lon="6.53025">
        <ele>1376</ele>
        <time>2018-12-18T09:37:32Z</time>
      </trkpt>
      <trkpt lat="45.87595" lon="6.53027">
        <ele>1378</ele>
        <time>2018-12-18T09:37:50Z</time>
      </trkpt>
      <trkpt lat="45.8759" lon="6.53036">
        <ele>1380</ele>
        <time>2018-12-18T09:38:14Z</time>
      </trkpt>
      <trkpt lat="45.87594" lon="6.53045">
        <ele>1385</ele>
        <time>2018-12-18T09:38:26Z</time>
      </trkpt>
      <trkpt lat="45.87597" lon="6.53051">
        <ele>1386</ele>
        <time>2018-12-18T09:38:38Z</time>
      </trkpt>
      <trkpt lat="45.87601" lon="6.53057">
        <ele>1388</ele>
        <time>2018-12-18T09:38:47Z</time>
      </trkpt>
      <trkpt lat="45.87604" lon="6.53068">
        <ele>1389</ele>
        <time>2018-12-18T09:39:01Z</time>
      </trkpt>
      <trkpt lat="45.87607" lon="6.53078">
        <ele>1392</ele>
        <time>2018-12-18T09:39:17Z</time>
      </trkpt>
      <trkpt lat="45.87594" lon="6.53082">
        <ele>1393</ele>
        <time>2018-12-18T09:39:38Z</time>
      </trkpt>
      <trkpt lat="45.87588" lon="6.53079">
        <ele>1393</ele>
        <time>2018-12-18T09:39:51Z</time>
      </trkpt>
      <trkpt lat="45.87581" lon="6.53076">
        <ele>1393</ele>
        <time>2018-12-18T09:39:57Z</time>
      </trkpt>
      <trkpt lat="45.87566" lon="6.53073">
        <ele>1395</ele>
        <time>2018-12-18T09:40:24Z</time>
      </trkpt>
      <trkpt lat="45.87549" lon="6.53069">
        <ele>1398</ele>
        <time>2018-12-18T09:40:56Z</time>
      </trkpt>
      <trkpt lat="45.87535" lon="6.53058">
        <ele>1401</ele>
        <time>2018-12-18T09:41:20Z</time>
      </trkpt>
      <trkpt lat="45.87529" lon="6.53052">
        <ele>1402</ele>
        <time>2018-12-18T09:41:31Z</time>
      </trkpt>
      <trkpt lat="45.87523" lon="6.53046">
        <ele>1405</ele>
        <time>2018-12-18T09:41:41Z</time>
      </trkpt>
      <trkpt lat="45.87516" lon="6.53037">
        <ele>1406</ele>
        <time>2018-12-18T09:41:51Z</time>
      </trkpt>
      <trkpt lat="45.87512" lon="6.53028">
        <ele>1410</ele>
        <time>2018-12-18T09:42:03Z</time>
      </trkpt>
      <trkpt lat="45.87504" lon="6.53018">
        <ele>1413</ele>
        <time>2018-12-18T09:42:17Z</time>
      </trkpt>
      <trkpt lat="45.87495" lon="6.53017">
        <ele>1415</ele>
        <time>2018-12-18T09:42:38Z</time>
      </trkpt>
      <trkpt lat="45.87487" lon="6.53013">
        <ele>1418</ele>
        <time>2018-12-18T09:42:50Z</time>
      </trkpt>
      <trkpt lat="45.87473" lon="6.53009">
        <ele>1421</ele>
        <time>2018-12-18T09:43:24Z</time>
      </trkpt>
      <trkpt lat="45.87466" lon="6.53008">
        <ele>1422</ele>
        <time>2018-12-18T09:43:36Z</time>
      </trkpt>
      <trkpt lat="45.87459" lon="6.53001">
        <ele>1423</ele>
        <time>2018-12-18T09:44:05Z</time>
      </trkpt>
      <trkpt lat="45.87447" lon="6.52997">
        <ele>1426</ele>
        <time>2018-12-18T09:44:34Z</time>
      </trkpt>
      <trkpt lat="45.87431" lon="6.52993">
        <ele>1433</ele>
        <time>2018-12-18T09:44:56Z</time>
      </trkpt>
      <trkpt lat="45.87422" lon="6.52991">
        <ele>1436</ele>
        <time>2018-12-18T09:45:02Z</time>
      </trkpt>
      <trkpt lat="45.87415" lon="6.5299">
        <ele>1439</ele>
        <time>2018-12-18T09:45:18Z</time>
      </trkpt>
      <trkpt lat="45.87407" lon="6.52992">
        <ele>1442</ele>
        <time>2018-12-18T09:45:36Z</time>
      </trkpt>
      <trkpt lat="45.87399" lon="6.52995">
        <ele>1445</ele>
        <time>2018-12-18T09:45:52Z</time>
      </trkpt>
      <trkpt lat="45.87392" lon="6.52994">
        <ele>1448</ele>
        <time>2018-12-18T09:46:04Z</time>
      </trkpt>
      <trkpt lat="45.87383" lon="6.52995">
        <ele>1451</ele>
        <time>2018-12-18T09:46:30Z</time>
      </trkpt>
      <trkpt lat="45.87376" lon="6.52997">
        <ele>1453</ele>
        <time>2018-12-18T09:46:38Z</time>
      </trkpt>
      <trkpt lat="45.87369" lon="6.52997">
        <ele>1456</ele>
        <time>2018-12-18T09:46:58Z</time>
      </trkpt>
      <trkpt lat="45.87358" lon="6.53001">
        <ele>1461</ele>
        <time>2018-12-18T09:47:35Z</time>
      </trkpt>
      <trkpt lat="45.87345" lon="6.53011">
        <ele>1464</ele>
        <time>2018-12-18T09:47:53Z</time>
      </trkpt>
      <trkpt lat="45.87342" lon="6.5302">
        <ele>1467</ele>
        <time>2018-12-18T09:48:18Z</time>
      </trkpt>
      <trkpt lat="45.87348" lon="6.53022">
        <ele>1468</ele>
        <time>2018-12-18T09:53:12Z</time>
      </trkpt>
      <trkpt lat="45.87355" lon="6.53032">
        <ele>1469</ele>
        <time>2018-12-18T09:55:43Z</time>
      </trkpt>
      <trkpt lat="45.87357" lon="6.53042">
        <ele>1469</ele>
        <time>2018-12-18T09:55:53Z</time>
      </trkpt>
      <trkpt lat="45.87358" lon="6.53053">
        <ele>1470</ele>
        <time>2018-12-18T09:56:09Z</time>
      </trkpt>
      <trkpt lat="45.87365" lon="6.53057">
        <ele>1470</ele>
        <time>2018-12-18T09:56:32Z</time>
      </trkpt>
      <trkpt lat="45.87368" lon="6.53067">
        <ele>1472</ele>
        <time>2018-12-18T09:56:51Z</time>
      </trkpt>
      <trkpt lat="45.87371" lon="6.53077">
        <ele>1473</ele>
        <time>2018-12-18T09:57:09Z</time>
      </trkpt>
      <trkpt lat="45.87378" lon="6.53085">
        <ele>1474</ele>
        <time>2018-12-18T09:57:20Z</time>
      </trkpt>
      <trkpt lat="45.87377" lon="6.53096">
        <ele>1475</ele>
        <time>2018-12-18T09:57:34Z</time>
      </trkpt>
      <trkpt lat="45.87376" lon="6.53107">
        <ele>1478</ele>
        <time>2018-12-18T09:57:50Z</time>
      </trkpt>
      <trkpt lat="45.87377" lon="6.53117">
        <ele>1479</ele>
        <time>2018-12-18T09:58:07Z</time>
      </trkpt>
      <trkpt lat="45.87376" lon="6.53129">
        <ele>1483</ele>
        <time>2018-12-18T09:58:21Z</time>
      </trkpt>
      <trkpt lat="45.87381" lon="6.53137">
        <ele>1485</ele>
        <time>2018-12-18T09:58:42Z</time>
      </trkpt>
      <trkpt lat="45.87389" lon="6.53145">
        <ele>1488</ele>
        <time>2018-12-18T09:58:54Z</time>
      </trkpt>
      <trkpt lat="45.87394" lon="6.53153">
        <ele>1489</ele>
        <time>2018-12-18T09:59:10Z</time>
      </trkpt>
      <trkpt lat="45.87397" lon="6.53163">
        <ele>1491</ele>
        <time>2018-12-18T09:59:28Z</time>
      </trkpt>
      <trkpt lat="45.87401" lon="6.53176">
        <ele>1493</ele>
        <time>2018-12-18T09:59:45Z</time>
      </trkpt>
      <trkpt lat="45.87406" lon="6.53186">
        <ele>1497</ele>
        <time>2018-12-18T10:00:10Z</time>
      </trkpt>
      <trkpt lat="45.87411" lon="6.53194">
        <ele>1498</ele>
        <time>2018-12-18T10:00:25Z</time>
      </trkpt>
      <trkpt lat="45.87415" lon="6.53204">
        <ele>1501</ele>
        <time>2018-12-18T10:00:42Z</time>
      </trkpt>
      <trkpt lat="45.87417" lon="6.53214">
        <ele>1502</ele>
        <time>2018-12-18T10:00:53Z</time>
      </trkpt>
      <trkpt lat="45.87421" lon="6.53223">
        <ele>1505</ele>
        <time>2018-12-18T10:01:10Z</time>
      </trkpt>
      <trkpt lat="45.87427" lon="6.53228">
        <ele>1506</ele>
        <time>2018-12-18T10:01:20Z</time>
      </trkpt>
      <trkpt lat="45.87429" lon="6.53239">
        <ele>1511</ele>
        <time>2018-12-18T10:01:36Z</time>
      </trkpt>
      <trkpt lat="45.87427" lon="6.53247">
        <ele>1511</ele>
        <time>2018-12-18T10:01:42Z</time>
      </trkpt>
      <trkpt lat="45.87424" lon="6.53256">
        <ele>1514</ele>
        <time>2018-12-18T10:01:53Z</time>
      </trkpt>
      <trkpt lat="45.87417" lon="6.53265">
        <ele>1517</ele>
        <time>2018-12-18T10:02:04Z</time>
      </trkpt>
      <trkpt lat="45.87418" lon="6.53276">
        <ele>1520</ele>
        <time>2018-12-18T10:02:17Z</time>
      </trkpt>
      <trkpt lat="45.87417" lon="6.53286">
        <ele>1524</ele>
        <time>2018-12-18T10:03:00Z</time>
      </trkpt>
      <trkpt lat="45.87413" lon="6.53297">
        <ele>1525</ele>
        <time>2018-12-18T10:03:22Z</time>
      </trkpt>
      <trkpt lat="45.87408" lon="6.53304">
        <ele>1526</ele>
        <time>2018-12-18T10:03:30Z</time>
      </trkpt>
      <trkpt lat="45.87401" lon="6.53309">
        <ele>1528</ele>
        <time>2018-12-18T10:03:39Z</time>
      </trkpt>
      <trkpt lat="45.87396" lon="6.53313">
        <ele>1529</ele>
        <time>2018-12-18T10:03:47Z</time>
      </trkpt>
      <trkpt lat="45.8739" lon="6.53313">
        <ele>1531</ele>
        <time>2018-12-18T10:03:54Z</time>
      </trkpt>
      <trkpt lat="45.87383" lon="6.53316">
        <ele>1532</ele>
        <time>2018-12-18T10:04:08Z</time>
      </trkpt>
      <trkpt lat="45.87368" lon="6.53314">
        <ele>1536</ele>
        <time>2018-12-18T10:04:33Z</time>
      </trkpt>
      <trkpt lat="45.87362" lon="6.53307">
        <ele>1538</ele>
        <time>2018-12-18T10:04:47Z</time>
      </trkpt>
      <trkpt lat="45.87355" lon="6.53303">
        <ele>1538</ele>
        <time>2018-12-18T10:04:56Z</time>
      </trkpt>
      <trkpt lat="45.87353" lon="6.53312">
        <ele>1544</ele>
        <time>2018-12-18T10:05:21Z</time>
      </trkpt>
      <trkpt lat="45.87352" lon="6.53323">
        <ele>1548</ele>
        <time>2018-12-18T10:05:41Z</time>
      </trkpt>
      <trkpt lat="45.8735" lon="6.5333">
        <ele>1549</ele>
        <time>2018-12-18T10:05:56Z</time>
      </trkpt>
      <trkpt lat="45.87346" lon="6.5334">
        <ele>1552</ele>
        <time>2018-12-18T10:06:13Z</time>
      </trkpt>
      <trkpt lat="45.8734" lon="6.53346">
        <ele>1554</ele>
        <time>2018-12-18T10:06:28Z</time>
      </trkpt>
      <trkpt lat="45.87335" lon="6.53349">
        <ele>1556</ele>
        <time>2018-12-18T10:06:39Z</time>
      </trkpt>
      <trkpt lat="45.87331" lon="6.53355">
        <ele>1558</ele>
        <time>2018-12-18T10:06:51Z</time>
      </trkpt>
      <trkpt lat="45.87327" lon="6.53364">
        <ele>1560</ele>
        <time>2018-12-18T10:07:06Z</time>
      </trkpt>
      <trkpt lat="45.87321" lon="6.53359">
        <ele>1561</ele>
        <time>2018-12-18T10:07:23Z</time>
      </trkpt>
      <trkpt lat="45.87312" lon="6.53354">
        <ele>1563</ele>
        <time>2018-12-18T10:07:38Z</time>
      </trkpt>
      <trkpt lat="45.87307" lon="6.53347">
        <ele>1565</ele>
        <time>2018-12-18T10:08:00Z</time>
      </trkpt>
      <trkpt lat="45.87306" lon="6.53339">
        <ele>1567</ele>
        <time>2018-12-18T10:08:17Z</time>
      </trkpt>
      <trkpt lat="45.873" lon="6.53346">
        <ele>1570</ele>
        <time>2018-12-18T10:08:50Z</time>
      </trkpt>
      <trkpt lat="45.87293" lon="6.5335">
        <ele>1571</ele>
        <time>2018-12-18T10:09:02Z</time>
      </trkpt>
      <trkpt lat="45.87292" lon="6.53358">
        <ele>1576</ele>
        <time>2018-12-18T10:09:19Z</time>
      </trkpt>
      <trkpt lat="45.87287" lon="6.53366">
        <ele>1577</ele>
        <time>2018-12-18T10:09:37Z</time>
      </trkpt>
      <trkpt lat="45.87283" lon="6.53374">
        <ele>1582</ele>
        <time>2018-12-18T10:09:53Z</time>
      </trkpt>
      <trkpt lat="45.87277" lon="6.53381">
        <ele>1584</ele>
        <time>2018-12-18T10:10:11Z</time>
      </trkpt>
      <trkpt lat="45.87273" lon="6.53387">
        <ele>1587</ele>
        <time>2018-12-18T10:10:25Z</time>
      </trkpt>
      <trkpt lat="45.87269" lon="6.53396">
        <ele>1588</ele>
        <time>2018-12-18T10:10:43Z</time>
      </trkpt>
      <trkpt lat="45.87264" lon="6.53389">
        <ele>1589</ele>
        <time>2018-12-18T10:10:57Z</time>
      </trkpt>
      <trkpt lat="45.87257" lon="6.53384">
        <ele>1593</ele>
        <time>2018-12-18T10:11:14Z</time>
      </trkpt>
      <trkpt lat="45.87252" lon="6.5338">
        <ele>1595</ele>
        <time>2018-12-18T10:11:29Z</time>
      </trkpt>
      <trkpt lat="45.87245" lon="6.53382">
        <ele>1597</ele>
        <time>2018-12-18T10:11:44Z</time>
      </trkpt>
      <trkpt lat="45.87242" lon="6.53392">
        <ele>1599</ele>
        <time>2018-12-18T10:12:06Z</time>
      </trkpt>
      <trkpt lat="45.87239" lon="6.53402">
        <ele>1605</ele>
        <time>2018-12-18T10:12:28Z</time>
      </trkpt>
      <trkpt lat="45.87235" lon="6.53411">
        <ele>1607</ele>
        <time>2018-12-18T10:12:46Z</time>
      </trkpt>
      <trkpt lat="45.87231" lon="6.53422">
        <ele>1610</ele>
        <time>2018-12-18T10:13:05Z</time>
      </trkpt>
      <trkpt lat="45.87228" lon="6.53432">
        <ele>1611</ele>
        <time>2018-12-18T10:13:19Z</time>
      </trkpt>
      <trkpt lat="45.87223" lon="6.5344">
        <ele>1614</ele>
        <time>2018-12-18T10:13:40Z</time>
      </trkpt>
      <trkpt lat="45.87217" lon="6.53446">
        <ele>1617</ele>
        <time>2018-12-18T10:14:08Z</time>
      </trkpt>
      <trkpt lat="45.87208" lon="6.53436">
        <ele>1623</ele>
        <time>2018-12-18T10:14:24Z</time>
      </trkpt>
      <trkpt lat="45.87204" lon="6.53425">
        <ele>1629</ele>
        <time>2018-12-18T10:14:57Z</time>
      </trkpt>
      <trkpt lat="45.87197" lon="6.53422">
        <ele>1631</ele>
        <time>2018-12-18T10:15:05Z</time>
      </trkpt>
      <trkpt lat="45.87189" lon="6.53419">
        <ele>1636</ele>
        <time>2018-12-18T10:15:32Z</time>
      </trkpt>
      <trkpt lat="45.87183" lon="6.53429">
        <ele>1638</ele>
        <time>2018-12-18T10:15:51Z</time>
      </trkpt>
      <trkpt lat="45.87178" lon="6.53436">
        <ele>1641</ele>
        <time>2018-12-18T10:16:07Z</time>
      </trkpt>
      <trkpt lat="45.87177" lon="6.53447">
        <ele>1642</ele>
        <time>2018-12-18T10:16:24Z</time>
      </trkpt>
      <trkpt lat="45.87179" lon="6.53457">
        <ele>1643</ele>
        <time>2018-12-18T10:16:41Z</time>
      </trkpt>
      <trkpt lat="45.87167" lon="6.53457">
        <ele>1646</ele>
        <time>2018-12-18T10:17:05Z</time>
      </trkpt>
      <trkpt lat="45.87159" lon="6.53455">
        <ele>1649</ele>
        <time>2018-12-18T10:17:21Z</time>
      </trkpt>
      <trkpt lat="45.87151" lon="6.5345">
        <ele>1652</ele>
        <time>2018-12-18T10:17:31Z</time>
      </trkpt>
      <trkpt lat="45.87143" lon="6.53451">
        <ele>1655</ele>
        <time>2018-12-18T10:17:47Z</time>
      </trkpt>
      <trkpt lat="45.87135" lon="6.53449">
        <ele>1657</ele>
        <time>2018-12-18T10:17:59Z</time>
      </trkpt>
      <trkpt lat="45.87127" lon="6.5345">
        <ele>1658</ele>
        <time>2018-12-18T10:18:11Z</time>
      </trkpt>
      <trkpt lat="45.87119" lon="6.53451">
        <ele>1659</ele>
        <time>2018-12-18T10:18:32Z</time>
      </trkpt>
      <trkpt lat="45.87109" lon="6.53444">
        <ele>1660</ele>
        <time>2018-12-18T10:18:54Z</time>
      </trkpt>
      <trkpt lat="45.87095" lon="6.53436">
        <ele>1669</ele>
        <time>2018-12-18T10:19:24Z</time>
      </trkpt>
      <trkpt lat="45.87083" lon="6.53435">
        <ele>1675</ele>
        <time>2018-12-18T10:19:46Z</time>
      </trkpt>
      <trkpt lat="45.87072" lon="6.53433">
        <ele>1676</ele>
        <time>2018-12-18T10:19:59Z</time>
      </trkpt>
      <trkpt lat="45.87069" lon="6.53443">
        <ele>1678</ele>
        <time>2018-12-18T10:20:24Z</time>
      </trkpt>
      <trkpt lat="45.87065" lon="6.53452">
        <ele>1681</ele>
        <time>2018-12-18T10:20:38Z</time>
      </trkpt>
      <trkpt lat="45.87058" lon="6.5345">
        <ele>1683</ele>
        <time>2018-12-18T10:21:11Z</time>
      </trkpt>
      <trkpt lat="45.87047" lon="6.53442">
        <ele>1683</ele>
        <time>2018-12-18T10:21:26Z</time>
      </trkpt>
      <trkpt lat="45.87033" lon="6.53427">
        <ele>1688</ele>
        <time>2018-12-18T10:21:50Z</time>
      </trkpt>
      <trkpt lat="45.87022" lon="6.53428">
        <ele>1691</ele>
        <time>2018-12-18T10:22:24Z</time>
      </trkpt>
      <trkpt lat="45.87018" lon="6.53438">
        <ele>1694</ele>
        <time>2018-12-18T10:22:40Z</time>
      </trkpt>
      <trkpt lat="45.87017" lon="6.53462">
        <ele>1698</ele>
        <time>2018-12-18T10:23:11Z</time>
      </trkpt>
      <trkpt lat="45.87011" lon="6.53468">
        <ele>1699</ele>
        <time>2018-12-18T10:23:31Z</time>
      </trkpt>
      <trkpt lat="45.86996" lon="6.53458">
        <ele>1703</ele>
        <time>2018-12-18T10:24:05Z</time>
      </trkpt>
      <trkpt lat="45.86991" lon="6.5345">
        <ele>1704</ele>
        <time>2018-12-18T10:24:09Z</time>
      </trkpt>
      <trkpt lat="45.86984" lon="6.53443">
        <ele>1707</ele>
        <time>2018-12-18T10:24:25Z</time>
      </trkpt>
      <trkpt lat="45.86978" lon="6.53444">
        <ele>1710</ele>
        <time>2018-12-18T10:24:39Z</time>
      </trkpt>
      <trkpt lat="45.86971" lon="6.53449">
        <ele>1713</ele>
        <time>2018-12-18T10:25:08Z</time>
      </trkpt>
      <trkpt lat="45.86965" lon="6.53443">
        <ele>1714</ele>
        <time>2018-12-18T10:25:20Z</time>
      </trkpt>
      <trkpt lat="45.86955" lon="6.53448">
        <ele>1717</ele>
        <time>2018-12-18T10:25:46Z</time>
      </trkpt>
      <trkpt lat="45.86948" lon="6.53455">
        <ele>1721</ele>
        <time>2018-12-18T10:26:03Z</time>
      </trkpt>
      <trkpt lat="45.86942" lon="6.53468">
        <ele>1725</ele>
        <time>2018-12-18T10:26:27Z</time>
      </trkpt>
      <trkpt lat="45.8693" lon="6.53461">
        <ele>1729</ele>
        <time>2018-12-18T10:26:43Z</time>
      </trkpt>
      <trkpt lat="45.86922" lon="6.53458">
        <ele>1733</ele>
        <time>2018-12-18T10:27:00Z</time>
      </trkpt>
      <trkpt lat="45.86916" lon="6.5346">
        <ele>1735</ele>
        <time>2018-12-18T10:27:12Z</time>
      </trkpt>
      <trkpt lat="45.86909" lon="6.53462">
        <ele>1736</ele>
        <time>2018-12-18T10:27:27Z</time>
      </trkpt>
      <trkpt lat="45.86901" lon="6.53464">
        <ele>1739</ele>
        <time>2018-12-18T10:27:38Z</time>
      </trkpt>
      <trkpt lat="45.86894" lon="6.53465">
        <ele>1742</ele>
        <time>2018-12-18T10:27:55Z</time>
      </trkpt>
      <trkpt lat="45.86888" lon="6.53458">
        <ele>1743</ele>
        <time>2018-12-18T10:28:02Z</time>
      </trkpt>
      <trkpt lat="45.86881" lon="6.53454">
        <ele>1745</ele>
        <time>2018-12-18T10:28:08Z</time>
      </trkpt>
      <trkpt lat="45.86874" lon="6.5346">
        <ele>1747</ele>
        <time>2018-12-18T10:28:26Z</time>
      </trkpt>
      <trkpt lat="45.86871" lon="6.53452">
        <ele>1751</ele>
        <time>2018-12-18T10:28:56Z</time>
      </trkpt>
      <trkpt lat="45.86864" lon="6.53444">
        <ele>1753</ele>
        <time>2018-12-18T10:34:05Z</time>
      </trkpt>
      <trkpt lat="45.86856" lon="6.53433">
        <ele>1755</ele>
        <time>2018-12-18T10:34:22Z</time>
      </trkpt>
      <trkpt lat="45.86829" lon="6.53411">
        <ele>1757</ele>
        <time>2018-12-18T10:35:00Z</time>
      </trkpt>
      <trkpt lat="45.86805" lon="6.53399">
        <ele>1760</ele>
        <time>2018-12-18T10:35:30Z</time>
      </trkpt>
      <trkpt lat="45.86797" lon="6.53397">
        <ele>1760</ele>
        <time>2018-12-18T10:35:37Z</time>
      </trkpt>
      <trkpt lat="45.86791" lon="6.53393">
        <ele>1761</ele>
        <time>2018-12-18T10:35:45Z</time>
      </trkpt>
      <trkpt lat="45.86785" lon="6.53386">
        <ele>1761</ele>
        <time>2018-12-18T10:35:52Z</time>
      </trkpt>
      <trkpt lat="45.8678" lon="6.53382">
        <ele>1761</ele>
        <time>2018-12-18T10:35:58Z</time>
      </trkpt>
      <trkpt lat="45.86766" lon="6.53373">
        <ele>1761</ele>
        <time>2018-12-18T10:36:18Z</time>
      </trkpt>
      <trkpt lat="45.86761" lon="6.53365">
        <ele>1761</ele>
        <time>2018-12-18T10:36:29Z</time>
      </trkpt>
      <trkpt lat="45.86748" lon="6.53353">
        <ele>1760</ele>
        <time>2018-12-18T10:36:49Z</time>
      </trkpt>
      <trkpt lat="45.8674" lon="6.53349">
        <ele>1759</ele>
        <time>2018-12-18T10:36:59Z</time>
      </trkpt>
      <trkpt lat="45.86725" lon="6.53342">
        <ele>1759</ele>
        <time>2018-12-18T10:37:18Z</time>
      </trkpt>
      <trkpt lat="45.8672" lon="6.53339">
        <ele>1760</ele>
        <time>2018-12-18T10:37:26Z</time>
      </trkpt>
      <trkpt lat="45.86707" lon="6.53325">
        <ele>1764</ele>
        <time>2018-12-18T10:37:45Z</time>
      </trkpt>
      <trkpt lat="45.86696" lon="6.53315">
        <ele>1768</ele>
        <time>2018-12-18T10:38:05Z</time>
      </trkpt>
      <trkpt lat="45.86684" lon="6.53306">
        <ele>1772</ele>
        <time>2018-12-18T10:38:28Z</time>
      </trkpt>
      <trkpt lat="45.8668" lon="6.53302">
        <ele>1774</ele>
        <time>2018-12-18T10:38:37Z</time>
      </trkpt>
      <trkpt lat="45.86672" lon="6.53297">
        <ele>1775</ele>
        <time>2018-12-18T10:38:46Z</time>
      </trkpt>
      <trkpt lat="45.86667" lon="6.5329">
        <ele>1777</ele>
        <time>2018-12-18T10:38:53Z</time>
      </trkpt>
      <trkpt lat="45.8666" lon="6.53285">
        <ele>1778</ele>
        <time>2018-12-18T10:39:03Z</time>
      </trkpt>
      <trkpt lat="45.86652" lon="6.53281">
        <ele>1781</ele>
        <time>2018-12-18T10:39:15Z</time>
      </trkpt>
      <trkpt lat="45.86646" lon="6.53276">
        <ele>1784</ele>
        <time>2018-12-18T10:39:27Z</time>
      </trkpt>
      <trkpt lat="45.86629" lon="6.53266">
        <ele>1787</ele>
        <time>2018-12-18T10:39:58Z</time>
      </trkpt>
      <trkpt lat="45.86622" lon="6.53265">
        <ele>1790</ele>
        <time>2018-12-18T10:40:12Z</time>
      </trkpt>
      <trkpt lat="45.86609" lon="6.53258">
        <ele>1793</ele>
        <time>2018-12-18T10:40:27Z</time>
      </trkpt>
      <trkpt lat="45.86597" lon="6.53256">
        <ele>1795</ele>
        <time>2018-12-18T10:40:46Z</time>
      </trkpt>
      <trkpt lat="45.86579" lon="6.53249">
        <ele>1800</ele>
        <time>2018-12-18T10:41:12Z</time>
      </trkpt>
      <trkpt lat="45.86574" lon="6.53244">
        <ele>1801</ele>
        <time>2018-12-18T10:41:21Z</time>
      </trkpt>
      <trkpt lat="45.86567" lon="6.53243">
        <ele>1802</ele>
        <time>2018-12-18T10:41:29Z</time>
      </trkpt>
      <trkpt lat="45.86562" lon="6.53239">
        <ele>1802</ele>
        <time>2018-12-18T10:41:33Z</time>
      </trkpt>
      <trkpt lat="45.86557" lon="6.53236">
        <ele>1803</ele>
        <time>2018-12-18T10:41:47Z</time>
      </trkpt>
      <trkpt lat="45.86545" lon="6.5324">
        <ele>1806</ele>
        <time>2018-12-18T10:42:08Z</time>
      </trkpt>
      <trkpt lat="45.8654" lon="6.53244">
        <ele>1808</ele>
        <time>2018-12-18T10:42:21Z</time>
      </trkpt>
      <trkpt lat="45.86534" lon="6.53246">
        <ele>1809</ele>
        <time>2018-12-18T10:42:30Z</time>
      </trkpt>
      <trkpt lat="45.8652" lon="6.53244">
        <ele>1813</ele>
        <time>2018-12-18T10:42:52Z</time>
      </trkpt>
      <trkpt lat="45.86513" lon="6.53245">
        <ele>1815</ele>
        <time>2018-12-18T10:43:04Z</time>
      </trkpt>
      <trkpt lat="45.86507" lon="6.53245">
        <ele>1816</ele>
        <time>2018-12-18T10:43:12Z</time>
      </trkpt>
      <trkpt lat="45.86496" lon="6.53246">
        <ele>1819</ele>
        <time>2018-12-18T10:43:30Z</time>
      </trkpt>
      <trkpt lat="45.86488" lon="6.53247">
        <ele>1821</ele>
        <time>2018-12-18T10:43:43Z</time>
      </trkpt>
      <trkpt lat="45.86482" lon="6.53248">
        <ele>1825</ele>
        <time>2018-12-18T10:43:54Z</time>
      </trkpt>
      <trkpt lat="45.86464" lon="6.53251">
        <ele>1829</ele>
        <time>2018-12-18T10:44:23Z</time>
      </trkpt>
      <trkpt lat="45.86457" lon="6.53251">
        <ele>1830</ele>
        <time>2018-12-18T10:44:32Z</time>
      </trkpt>
      <trkpt lat="45.86452" lon="6.53248">
        <ele>1831</ele>
        <time>2018-12-18T10:44:41Z</time>
      </trkpt>
      <trkpt lat="45.86447" lon="6.53249">
        <ele>1832</ele>
        <time>2018-12-18T10:44:49Z</time>
      </trkpt>
      <trkpt lat="45.86441" lon="6.5325">
        <ele>1834</ele>
        <time>2018-12-18T10:44:59Z</time>
      </trkpt>
      <trkpt lat="45.86433" lon="6.5325">
        <ele>1836</ele>
        <time>2018-12-18T10:45:14Z</time>
      </trkpt>
      <trkpt lat="45.86427" lon="6.53249">
        <ele>1839</ele>
        <time>2018-12-18T10:45:24Z</time>
      </trkpt>
      <trkpt lat="45.86413" lon="6.53251">
        <ele>1843</ele>
        <time>2018-12-18T10:45:47Z</time>
      </trkpt>
      <trkpt lat="45.86406" lon="6.53252">
        <ele>1846</ele>
        <time>2018-12-18T10:45:59Z</time>
      </trkpt>
      <trkpt lat="45.86399" lon="6.53253">
        <ele>1847</ele>
        <time>2018-12-18T10:46:11Z</time>
      </trkpt>
      <trkpt lat="45.86386" lon="6.53252">
        <ele>1851</ele>
        <time>2018-12-18T10:46:30Z</time>
      </trkpt>
      <trkpt lat="45.86378" lon="6.53253">
        <ele>1852</ele>
        <time>2018-12-18T10:46:39Z</time>
      </trkpt>
      <trkpt lat="45.86372" lon="6.53253">
        <ele>1853</ele>
        <time>2018-12-18T10:46:49Z</time>
      </trkpt>
      <trkpt lat="45.86365" lon="6.53257">
        <ele>1855</ele>
        <time>2018-12-18T10:47:00Z</time>
      </trkpt>
      <trkpt lat="45.86346" lon="6.53263">
        <ele>1860</ele>
        <time>2018-12-18T10:47:32Z</time>
      </trkpt>
      <trkpt lat="45.86339" lon="6.53263">
        <ele>1862</ele>
        <time>2018-12-18T10:47:42Z</time>
      </trkpt>
      <trkpt lat="45.86329" lon="6.53268">
        <ele>1865</ele>
        <time>2018-12-18T10:48:02Z</time>
      </trkpt>
      <trkpt lat="45.86322" lon="6.53267">
        <ele>1867</ele>
        <time>2018-12-18T10:48:14Z</time>
      </trkpt>
      <trkpt lat="45.86316" lon="6.53263">
        <ele>1868</ele>
        <time>2018-12-18T10:48:23Z</time>
      </trkpt>
      <trkpt lat="45.86299" lon="6.53257">
        <ele>1874</ele>
        <time>2018-12-18T10:48:52Z</time>
      </trkpt>
      <trkpt lat="45.86295" lon="6.53253">
        <ele>1876</ele>
        <time>2018-12-18T10:49:03Z</time>
      </trkpt>
      <trkpt lat="45.86291" lon="6.53247">
        <ele>1879</ele>
        <time>2018-12-18T10:49:16Z</time>
      </trkpt>
      <trkpt lat="45.86283" lon="6.53246">
        <ele>1880</ele>
        <time>2018-12-18T10:49:26Z</time>
      </trkpt>
      <trkpt lat="45.86277" lon="6.5324">
        <ele>1883</ele>
        <time>2018-12-18T10:49:38Z</time>
      </trkpt>
      <trkpt lat="45.86271" lon="6.53236">
        <ele>1884</ele>
        <time>2018-12-18T10:49:49Z</time>
      </trkpt>
      <trkpt lat="45.86264" lon="6.53233">
        <ele>1887</ele>
        <time>2018-12-18T10:50:06Z</time>
      </trkpt>
      <trkpt lat="45.86258" lon="6.53233">
        <ele>1889</ele>
        <time>2018-12-18T10:50:15Z</time>
      </trkpt>
      <trkpt lat="45.86252" lon="6.53231">
        <ele>1890</ele>
        <time>2018-12-18T10:50:25Z</time>
      </trkpt>
      <trkpt lat="45.86247" lon="6.5323">
        <ele>1892</ele>
        <time>2018-12-18T10:50:34Z</time>
      </trkpt>
      <trkpt lat="45.86242" lon="6.53227">
        <ele>1893</ele>
        <time>2018-12-18T10:50:43Z</time>
      </trkpt>
      <trkpt lat="45.8623" lon="6.53228">
        <ele>1898</ele>
        <time>2018-12-18T10:51:11Z</time>
      </trkpt>
      <trkpt lat="45.86225" lon="6.53226">
        <ele>1901</ele>
        <time>2018-12-18T10:51:24Z</time>
      </trkpt>
      <trkpt lat="45.86219" lon="6.53227">
        <ele>1903</ele>
        <time>2018-12-18T10:51:35Z</time>
      </trkpt>
      <trkpt lat="45.86212" lon="6.53227">
        <ele>1906</ele>
        <time>2018-12-18T10:51:47Z</time>
      </trkpt>
      <trkpt lat="45.86207" lon="6.53229">
        <ele>1908</ele>
        <time>2018-12-18T10:52:00Z</time>
      </trkpt>
      <trkpt lat="45.86201" lon="6.5323">
        <ele>1911</ele>
        <time>2018-12-18T10:52:11Z</time>
      </trkpt>
      <trkpt lat="45.86196" lon="6.53229">
        <ele>1912</ele>
        <time>2018-12-18T10:52:20Z</time>
      </trkpt>
      <trkpt lat="45.8619" lon="6.53229">
        <ele>1914</ele>
        <time>2018-12-18T10:52:27Z</time>
      </trkpt>
      <trkpt lat="45.86182" lon="6.53233">
        <ele>1916</ele>
        <time>2018-12-18T10:52:44Z</time>
      </trkpt>
      <trkpt lat="45.86169" lon="6.53234">
        <ele>1918</ele>
        <time>2018-12-18T10:53:06Z</time>
      </trkpt>
      <trkpt lat="45.86158" lon="6.53242">
        <ele>1921</ele>
        <time>2018-12-18T10:53:30Z</time>
      </trkpt>
      <trkpt lat="45.86155" lon="6.53238">
        <ele>1923</ele>
        <time>2018-12-18T10:56:13Z</time>
      </trkpt>
      <trkpt lat="45.86154" lon="6.53245">
        <ele>1922</ele>
        <time>2018-12-18T10:59:32Z</time>
      </trkpt>
      <trkpt lat="45.8616" lon="6.53226">
        <ele>1923</ele>
        <time>2018-12-18T11:03:58Z</time>
      </trkpt>
      <trkpt lat="45.86153" lon="6.53186">
        <ele>1924</ele>
        <time>2018-12-18T11:04:14Z</time>
      </trkpt>
      <trkpt lat="45.86149" lon="6.53174">
        <ele>1924</ele>
        <time>2018-12-18T11:04:19Z</time>
      </trkpt>
      <trkpt lat="45.86128" lon="6.53122">
        <ele>1924</ele>
        <time>2018-12-18T11:04:32Z</time>
      </trkpt>
      <trkpt lat="45.86127" lon="6.53106">
        <ele>1925</ele>
        <time>2018-12-18T11:04:35Z</time>
      </trkpt>
      <trkpt lat="45.86129" lon="6.53085">
        <ele>1924</ele>
        <time>2018-12-18T11:05:05Z</time>
      </trkpt>
      <trkpt lat="45.86141" lon="6.53085">
        <ele>1924</ele>
        <time>2018-12-18T11:05:12Z</time>
      </trkpt>
      <trkpt lat="45.86146" lon="6.53071">
        <ele>1919</ele>
        <time>2018-12-18T11:05:18Z</time>
      </trkpt>
      <trkpt lat="45.86153" lon="6.53059">
        <ele>1915</ele>
        <time>2018-12-18T11:05:28Z</time>
      </trkpt>
      <trkpt lat="45.86148" lon="6.53049">
        <ele>1913</ele>
        <time>2018-12-18T11:05:33Z</time>
      </trkpt>
      <trkpt lat="45.86153" lon="6.53034">
        <ele>1910</ele>
        <time>2018-12-18T11:05:44Z</time>
      </trkpt>
      <trkpt lat="45.8616" lon="6.53029">
        <ele>1892</ele>
        <time>2018-12-18T11:06:02Z</time>
      </trkpt>
      <trkpt lat="45.86169" lon="6.53018">
        <ele>1889</ele>
        <time>2018-12-18T11:06:23Z</time>
      </trkpt>
      <trkpt lat="45.86175" lon="6.53005">
        <ele>1885</ele>
        <time>2018-12-18T11:06:27Z</time>
      </trkpt>
      <trkpt lat="45.86182" lon="6.52999">
        <ele>1884</ele>
        <time>2018-12-18T11:06:31Z</time>
      </trkpt>
      <trkpt lat="45.8619" lon="6.52994">
        <ele>1881</ele>
        <time>2018-12-18T11:06:38Z</time>
      </trkpt>
      <trkpt lat="45.86205" lon="6.53">
        <ele>1875</ele>
        <time>2018-12-18T11:06:42Z</time>
      </trkpt>
      <trkpt lat="45.86233" lon="6.53005">
        <ele>1860</ele>
        <time>2018-12-18T11:06:47Z</time>
      </trkpt>
      <trkpt lat="45.86244" lon="6.53011">
        <ele>1857</ele>
        <time>2018-12-18T11:06:49Z</time>
      </trkpt>
      <trkpt lat="45.86272" lon="6.53028">
        <ele>1850</ele>
        <time>2018-12-18T11:06:58Z</time>
      </trkpt>
      <trkpt lat="45.86279" lon="6.53033">
        <ele>1850</ele>
        <time>2018-12-18T11:07:01Z</time>
      </trkpt>
      <trkpt lat="45.86288" lon="6.53043">
        <ele>1847</ele>
        <time>2018-12-18T11:07:05Z</time>
      </trkpt>
      <trkpt lat="45.86298" lon="6.53034">
        <ele>1846</ele>
        <time>2018-12-18T11:07:09Z</time>
      </trkpt>
      <trkpt lat="45.86317" lon="6.53011">
        <ele>1838</ele>
        <time>2018-12-18T11:07:16Z</time>
      </trkpt>
      <trkpt lat="45.86324" lon="6.52998">
        <ele>1835</ele>
        <time>2018-12-18T11:07:20Z</time>
      </trkpt>
      <trkpt lat="45.86329" lon="6.52982">
        <ele>1833</ele>
        <time>2018-12-18T11:07:26Z</time>
      </trkpt>
      <trkpt lat="45.86338" lon="6.52973">
        <ele>1829</ele>
        <time>2018-12-18T11:07:30Z</time>
      </trkpt>
      <trkpt lat="45.86343" lon="6.52952">
        <ele>1821</ele>
        <time>2018-12-18T11:07:36Z</time>
      </trkpt>
      <trkpt lat="45.86354" lon="6.52938">
        <ele>1808</ele>
        <time>2018-12-18T11:07:42Z</time>
      </trkpt>
      <trkpt lat="45.86369" lon="6.52927">
        <ele>1796</ele>
        <time>2018-12-18T11:07:45Z</time>
      </trkpt>
      <trkpt lat="45.86383" lon="6.5292">
        <ele>1791</ele>
        <time>2018-12-18T11:07:47Z</time>
      </trkpt>
      <trkpt lat="45.86391" lon="6.52918">
        <ele>1787</ele>
        <time>2018-12-18T11:07:48Z</time>
      </trkpt>
      <trkpt lat="45.86397" lon="6.52911">
        <ele>1785</ele>
        <time>2018-12-18T11:07:49Z</time>
      </trkpt>
      <trkpt lat="45.86415" lon="6.52901">
        <ele>1779</ele>
        <time>2018-12-18T11:07:52Z</time>
      </trkpt>
      <trkpt lat="45.86426" lon="6.52894">
        <ele>1776</ele>
        <time>2018-12-18T11:07:54Z</time>
      </trkpt>
      <trkpt lat="45.86435" lon="6.52887">
        <ele>1771</ele>
        <time>2018-12-18T11:07:56Z</time>
      </trkpt>
      <trkpt lat="45.86446" lon="6.52883">
        <ele>1767</ele>
        <time>2018-12-18T11:07:58Z</time>
      </trkpt>
      <trkpt lat="45.86455" lon="6.52864">
        <ele>1763</ele>
        <time>2018-12-18T11:08:01Z</time>
      </trkpt>
      <trkpt lat="45.86466" lon="6.52871">
        <ele>1758</ele>
        <time>2018-12-18T11:08:06Z</time>
      </trkpt>
      <trkpt lat="45.86471" lon="6.52867">
        <ele>1756</ele>
        <time>2018-12-18T11:08:15Z</time>
      </trkpt>
      <trkpt lat="45.86479" lon="6.52854">
        <ele>1755</ele>
        <time>2018-12-18T11:08:51Z</time>
      </trkpt>
      <trkpt lat="45.86487" lon="6.52838">
        <ele>1750</ele>
        <time>2018-12-18T11:08:55Z</time>
      </trkpt>
      <trkpt lat="45.86495" lon="6.52826">
        <ele>1744</ele>
        <time>2018-12-18T11:08:57Z</time>
      </trkpt>
      <trkpt lat="45.86499" lon="6.52818">
        <ele>1742</ele>
        <time>2018-12-18T11:08:59Z</time>
      </trkpt>
      <trkpt lat="45.86509" lon="6.52804">
        <ele>1737</ele>
        <time>2018-12-18T11:09:03Z</time>
      </trkpt>
      <trkpt lat="45.86516" lon="6.52796">
        <ele>1730</ele>
        <time>2018-12-18T11:09:05Z</time>
      </trkpt>
      <trkpt lat="45.86523" lon="6.52789">
        <ele>1727</ele>
        <time>2018-12-18T11:09:07Z</time>
      </trkpt>
      <trkpt lat="45.86533" lon="6.5278">
        <ele>1721</ele>
        <time>2018-12-18T11:09:10Z</time>
      </trkpt>
      <trkpt lat="45.86541" lon="6.52766">
        <ele>1715</ele>
        <time>2018-12-18T11:09:13Z</time>
      </trkpt>
      <trkpt lat="45.86551" lon="6.52753">
        <ele>1705</ele>
        <time>2018-12-18T11:09:16Z</time>
      </trkpt>
      <trkpt lat="45.86563" lon="6.52737">
        <ele>1697</ele>
        <time>2018-12-18T11:09:19Z</time>
      </trkpt>
      <trkpt lat="45.8657" lon="6.52728">
        <ele>1694</ele>
        <time>2018-12-18T11:09:21Z</time>
      </trkpt>
      <trkpt lat="45.86577" lon="6.52721">
        <ele>1688</ele>
        <time>2018-12-18T11:09:23Z</time>
      </trkpt>
      <trkpt lat="45.86587" lon="6.52712">
        <ele>1684</ele>
        <time>2018-12-18T11:09:25Z</time>
      </trkpt>
      <trkpt lat="45.86624" lon="6.52674">
        <ele>1659</ele>
        <time>2018-12-18T11:09:33Z</time>
      </trkpt>
      <trkpt lat="45.86631" lon="6.52663">
        <ele>1653</ele>
        <time>2018-12-18T11:09:35Z</time>
      </trkpt>
      <trkpt lat="45.86644" lon="6.52654">
        <ele>1648</ele>
        <time>2018-12-18T11:09:38Z</time>
      </trkpt>
      <trkpt lat="45.86652" lon="6.52645">
        <ele>1642</ele>
        <time>2018-12-18T11:09:40Z</time>
      </trkpt>
      <trkpt lat="45.86663" lon="6.52645">
        <ele>1637</ele>
        <time>2018-12-18T11:09:43Z</time>
      </trkpt>
      <trkpt lat="45.86658" lon="6.52658">
        <ele>1628</ele>
        <time>2018-12-18T11:15:00Z</time>
      </trkpt>
      <trkpt lat="45.86637" lon="6.52651">
        <ele>1625</ele>
        <time>2018-12-18T11:15:47Z</time>
      </trkpt>
      <trkpt lat="45.86631" lon="6.52657">
        <ele>1623</ele>
        <time>2018-12-18T11:16:08Z</time>
      </trkpt>
      <trkpt lat="45.86631" lon="6.52669">
        <ele>1623</ele>
        <time>2018-12-18T11:16:22Z</time>
      </trkpt>
      <trkpt lat="45.86627" lon="6.52684">
        <ele>1626</ele>
        <time>2018-12-18T11:16:48Z</time>
      </trkpt>
      <trkpt lat="45.86616" lon="6.52685">
        <ele>1629</ele>
        <time>2018-12-18T11:17:11Z</time>
      </trkpt>
      <trkpt lat="45.86597" lon="6.52682">
        <ele>1631</ele>
        <time>2018-12-18T11:17:47Z</time>
      </trkpt>
      <trkpt lat="45.86594" lon="6.52697">
        <ele>1639</ele>
        <time>2018-12-18T11:18:20Z</time>
      </trkpt>
      <trkpt lat="45.86594" lon="6.52724">
        <ele>1648</ele>
        <time>2018-12-18T11:18:55Z</time>
      </trkpt>
      <trkpt lat="45.86592" lon="6.52734">
        <ele>1651</ele>
        <time>2018-12-18T11:19:06Z</time>
      </trkpt>
      <trkpt lat="45.86586" lon="6.52742">
        <ele>1654</ele>
        <time>2018-12-18T11:19:21Z</time>
      </trkpt>
      <trkpt lat="45.86576" lon="6.52739">
        <ele>1656</ele>
        <time>2018-12-18T11:19:44Z</time>
      </trkpt>
      <trkpt lat="45.86566" lon="6.52736">
        <ele>1660</ele>
        <time>2018-12-18T11:20:01Z</time>
      </trkpt>
      <trkpt lat="45.86558" lon="6.5274">
        <ele>1663</ele>
        <time>2018-12-18T11:20:21Z</time>
      </trkpt>
      <trkpt lat="45.86559" lon="6.52748">
        <ele>1668</ele>
        <time>2018-12-18T11:20:33Z</time>
      </trkpt>
      <trkpt lat="45.86557" lon="6.5276">
        <ele>1669</ele>
        <time>2018-12-18T11:20:45Z</time>
      </trkpt>
      <trkpt lat="45.86554" lon="6.52778">
        <ele>1673</ele>
        <time>2018-12-18T11:21:15Z</time>
      </trkpt>
      <trkpt lat="45.86547" lon="6.52774">
        <ele>1675</ele>
        <time>2018-12-18T11:21:30Z</time>
      </trkpt>
      <trkpt lat="45.86536" lon="6.52768">
        <ele>1682</ele>
        <time>2018-12-18T11:21:53Z</time>
      </trkpt>
      <trkpt lat="45.86536" lon="6.52781">
        <ele>1684</ele>
        <time>2018-12-18T11:22:11Z</time>
      </trkpt>
      <trkpt lat="45.86538" lon="6.52792">
        <ele>1688</ele>
        <time>2018-12-18T11:22:29Z</time>
      </trkpt>
      <trkpt lat="45.86535" lon="6.52799">
        <ele>1692</ele>
        <time>2018-12-18T11:22:49Z</time>
      </trkpt>
      <trkpt lat="45.8653" lon="6.52797">
        <ele>1693</ele>
        <time>2018-12-18T11:22:57Z</time>
      </trkpt>
      <trkpt lat="45.86521" lon="6.52795">
        <ele>1695</ele>
        <time>2018-12-18T11:23:12Z</time>
      </trkpt>
      <trkpt lat="45.86516" lon="6.52792">
        <ele>1701</ele>
        <time>2018-12-18T11:23:24Z</time>
      </trkpt>
      <trkpt lat="45.8651" lon="6.52794">
        <ele>1703</ele>
        <time>2018-12-18T11:23:33Z</time>
      </trkpt>
      <trkpt lat="45.86513" lon="6.52816">
        <ele>1704</ele>
        <time>2018-12-18T11:23:58Z</time>
      </trkpt>
      <trkpt lat="45.86506" lon="6.52819">
        <ele>1706</ele>
        <time>2018-12-18T11:24:22Z</time>
      </trkpt>
      <trkpt lat="45.8649" lon="6.52818">
        <ele>1709</ele>
        <time>2018-12-18T11:24:49Z</time>
      </trkpt>
      <trkpt lat="45.86488" lon="6.52822">
        <ele>1713</ele>
        <time>2018-12-18T11:25:09Z</time>
      </trkpt>
      <trkpt lat="45.86489" lon="6.52833">
        <ele>1714</ele>
        <time>2018-12-18T11:25:22Z</time>
      </trkpt>
      <trkpt lat="45.86488" lon="6.52844">
        <ele>1717</ele>
        <time>2018-12-18T11:25:34Z</time>
      </trkpt>
      <trkpt lat="45.8649" lon="6.52853">
        <ele>1719</ele>
        <time>2018-12-18T11:25:50Z</time>
      </trkpt>
      <trkpt lat="45.86475" lon="6.52856">
        <ele>1728</ele>
        <time>2018-12-18T11:26:17Z</time>
      </trkpt>
      <trkpt lat="45.86468" lon="6.52854">
        <ele>1730</ele>
        <time>2018-12-18T11:26:24Z</time>
      </trkpt>
      <trkpt lat="45.86461" lon="6.52856">
        <ele>1733</ele>
        <time>2018-12-18T11:26:36Z</time>
      </trkpt>
      <trkpt lat="45.86455" lon="6.5286">
        <ele>1736</ele>
        <time>2018-12-18T11:26:46Z</time>
      </trkpt>
      <trkpt lat="45.8645" lon="6.52865">
        <ele>1738</ele>
        <time>2018-12-18T11:26:56Z</time>
      </trkpt>
      <trkpt lat="45.86445" lon="6.5287">
        <ele>1740</ele>
        <time>2018-12-18T11:27:05Z</time>
      </trkpt>
      <trkpt lat="45.86444" lon="6.52878">
        <ele>1742</ele>
        <time>2018-12-18T11:27:13Z</time>
      </trkpt>
      <trkpt lat="45.86442" lon="6.52887">
        <ele>1745</ele>
        <time>2018-12-18T11:27:29Z</time>
      </trkpt>
      <trkpt lat="45.86438" lon="6.52895">
        <ele>1747</ele>
        <time>2018-12-18T11:27:39Z</time>
      </trkpt>
      <trkpt lat="45.86435" lon="6.52903">
        <ele>1748</ele>
        <time>2018-12-18T11:27:50Z</time>
      </trkpt>
      <trkpt lat="45.86429" lon="6.52909">
        <ele>1750</ele>
        <time>2018-12-18T11:27:58Z</time>
      </trkpt>
      <trkpt lat="45.86422" lon="6.52909">
        <ele>1752</ele>
        <time>2018-12-18T11:28:10Z</time>
      </trkpt>
      <trkpt lat="45.86417" lon="6.5291">
        <ele>1753</ele>
        <time>2018-12-18T11:28:20Z</time>
      </trkpt>
      <trkpt lat="45.86411" lon="6.52912">
        <ele>1756</ele>
        <time>2018-12-18T11:28:29Z</time>
      </trkpt>
      <trkpt lat="45.86405" lon="6.52913">
        <ele>1758</ele>
        <time>2018-12-18T11:28:35Z</time>
      </trkpt>
      <trkpt lat="45.86393" lon="6.52921">
        <ele>1761</ele>
        <time>2018-12-18T11:28:53Z</time>
      </trkpt>
      <trkpt lat="45.86385" lon="6.52923">
        <ele>1762</ele>
        <time>2018-12-18T11:29:03Z</time>
      </trkpt>
      <trkpt lat="45.8638" lon="6.52928">
        <ele>1763</ele>
        <time>2018-12-18T11:29:13Z</time>
      </trkpt>
      <trkpt lat="45.86367" lon="6.52927">
        <ele>1766</ele>
        <time>2018-12-18T11:29:31Z</time>
      </trkpt>
      <trkpt lat="45.86362" lon="6.52926">
        <ele>1768</ele>
        <time>2018-12-18T11:29:44Z</time>
      </trkpt>
      <trkpt lat="45.86355" lon="6.52925">
        <ele>1771</ele>
        <time>2018-12-18T11:29:58Z</time>
      </trkpt>
      <trkpt lat="45.86349" lon="6.52925">
        <ele>1773</ele>
        <time>2018-12-18T11:30:08Z</time>
      </trkpt>
      <trkpt lat="45.86351" lon="6.52933">
        <ele>1774</ele>
        <time>2018-12-18T11:30:17Z</time>
      </trkpt>
      <trkpt lat="45.86353" lon="6.52941">
        <ele>1777</ele>
        <time>2018-12-18T11:30:29Z</time>
      </trkpt>
      <trkpt lat="45.86346" lon="6.52945">
        <ele>1778</ele>
        <time>2018-12-18T11:30:48Z</time>
      </trkpt>
      <trkpt lat="45.86338" lon="6.52945">
        <ele>1781</ele>
        <time>2018-12-18T11:31:04Z</time>
      </trkpt>
      <trkpt lat="45.86336" lon="6.52952">
        <ele>1786</ele>
        <time>2018-12-18T11:31:51Z</time>
      </trkpt>
      <trkpt lat="45.86341" lon="6.52961">
        <ele>1786</ele>
        <time>2018-12-18T11:32:03Z</time>
      </trkpt>
      <trkpt lat="45.86331" lon="6.52966">
        <ele>1791</ele>
        <time>2018-12-18T11:32:27Z</time>
      </trkpt>
      <trkpt lat="45.86325" lon="6.52967">
        <ele>1793</ele>
        <time>2018-12-18T11:32:34Z</time>
      </trkpt>
      <trkpt lat="45.86311" lon="6.52961">
        <ele>1801</ele>
        <time>2018-12-18T11:33:01Z</time>
      </trkpt>
      <trkpt lat="45.86306" lon="6.52969">
        <ele>1802</ele>
        <time>2018-12-18T11:33:13Z</time>
      </trkpt>
      <trkpt lat="45.86309" lon="6.52976">
        <ele>1804</ele>
        <time>2018-12-18T11:33:25Z</time>
      </trkpt>
      <trkpt lat="45.86313" lon="6.52982">
        <ele>1807</ele>
        <time>2018-12-18T11:33:43Z</time>
      </trkpt>
      <trkpt lat="45.86317" lon="6.52987">
        <ele>1809</ele>
        <time>2018-12-18T11:33:55Z</time>
      </trkpt>
      <trkpt lat="45.86317" lon="6.52995">
        <ele>1810</ele>
        <time>2018-12-18T11:34:08Z</time>
      </trkpt>
      <trkpt lat="45.86309" lon="6.52999">
        <ele>1810</ele>
        <time>2018-12-18T11:34:16Z</time>
      </trkpt>
      <trkpt lat="45.86292" lon="6.52997">
        <ele>1815</ele>
        <time>2018-12-18T11:34:38Z</time>
      </trkpt>
      <trkpt lat="45.86286" lon="6.53001">
        <ele>1816</ele>
        <time>2018-12-18T11:34:49Z</time>
      </trkpt>
      <trkpt lat="45.86281" lon="6.53005">
        <ele>1819</ele>
        <time>2018-12-18T11:35:02Z</time>
      </trkpt>
      <trkpt lat="45.86275" lon="6.53004">
        <ele>1820</ele>
        <time>2018-12-18T11:35:12Z</time>
      </trkpt>
      <trkpt lat="45.86269" lon="6.52999">
        <ele>1822</ele>
        <time>2018-12-18T11:35:18Z</time>
      </trkpt>
      <trkpt lat="45.86263" lon="6.52999">
        <ele>1824</ele>
        <time>2018-12-18T11:35:30Z</time>
      </trkpt>
      <trkpt lat="45.86258" lon="6.52998">
        <ele>1826</ele>
        <time>2018-12-18T11:35:38Z</time>
      </trkpt>
      <trkpt lat="45.86251" lon="6.53001">
        <ele>1828</ele>
        <time>2018-12-18T11:35:50Z</time>
      </trkpt>
      <trkpt lat="45.86245" lon="6.53">
        <ele>1831</ele>
        <time>2018-12-18T11:35:59Z</time>
      </trkpt>
      <trkpt lat="45.8624" lon="6.53003">
        <ele>1832</ele>
        <time>2018-12-18T11:36:09Z</time>
      </trkpt>
      <trkpt lat="45.86232" lon="6.53003">
        <ele>1835</ele>
        <time>2018-12-18T11:36:22Z</time>
      </trkpt>
      <trkpt lat="45.86226" lon="6.53003">
        <ele>1836</ele>
        <time>2018-12-18T11:36:29Z</time>
      </trkpt>
      <trkpt lat="45.86219" lon="6.53001">
        <ele>1838</ele>
        <time>2018-12-18T11:36:43Z</time>
      </trkpt>
      <trkpt lat="45.8621" lon="6.52997">
        <ele>1839</ele>
        <time>2018-12-18T11:36:54Z</time>
      </trkpt>
      <trkpt lat="45.86205" lon="6.52991">
        <ele>1842</ele>
        <time>2018-12-18T11:37:03Z</time>
      </trkpt>
      <trkpt lat="45.86197" lon="6.5299">
        <ele>1843</ele>
        <time>2018-12-18T11:37:14Z</time>
      </trkpt>
      <trkpt lat="45.8619" lon="6.52987">
        <ele>1847</ele>
        <time>2018-12-18T11:37:26Z</time>
      </trkpt>
      <trkpt lat="45.86184" lon="6.52985">
        <ele>1849</ele>
        <time>2018-12-18T11:37:36Z</time>
      </trkpt>
      <trkpt lat="45.86178" lon="6.52981">
        <ele>1851</ele>
        <time>2018-12-18T11:37:46Z</time>
      </trkpt>
      <trkpt lat="45.8617" lon="6.52978">
        <ele>1855</ele>
        <time>2018-12-18T11:37:59Z</time>
      </trkpt>
      <trkpt lat="45.86165" lon="6.52976">
        <ele>1856</ele>
        <time>2018-12-18T11:38:07Z</time>
      </trkpt>
      <trkpt lat="45.86158" lon="6.52975">
        <ele>1858</ele>
        <time>2018-12-18T11:38:17Z</time>
      </trkpt>
      <trkpt lat="45.86152" lon="6.52971">
        <ele>1859</ele>
        <time>2018-12-18T11:38:26Z</time>
      </trkpt>
      <trkpt lat="45.86138" lon="6.52972">
        <ele>1862</ele>
        <time>2018-12-18T11:38:43Z</time>
      </trkpt>
      <trkpt lat="45.86132" lon="6.52974">
        <ele>1863</ele>
        <time>2018-12-18T11:38:52Z</time>
      </trkpt>
      <trkpt lat="45.86126" lon="6.52973">
        <ele>1865</ele>
        <time>2018-12-18T11:39:02Z</time>
      </trkpt>
      <trkpt lat="45.86119" lon="6.52973">
        <ele>1866</ele>
        <time>2018-12-18T11:39:11Z</time>
      </trkpt>
      <trkpt lat="45.86113" lon="6.52973">
        <ele>1868</ele>
        <time>2018-12-18T11:39:19Z</time>
      </trkpt>
      <trkpt lat="45.861" lon="6.5297">
        <ele>1871</ele>
        <time>2018-12-18T11:39:40Z</time>
      </trkpt>
      <trkpt lat="45.86089" lon="6.52966">
        <ele>1873</ele>
        <time>2018-12-18T11:39:53Z</time>
      </trkpt>
      <trkpt lat="45.86082" lon="6.52963">
        <ele>1875</ele>
        <time>2018-12-18T11:40:03Z</time>
      </trkpt>
      <trkpt lat="45.86075" lon="6.52962">
        <ele>1877</ele>
        <time>2018-12-18T11:40:12Z</time>
      </trkpt>
      <trkpt lat="45.86069" lon="6.52961">
        <ele>1878</ele>
        <time>2018-12-18T11:40:22Z</time>
      </trkpt>
      <trkpt lat="45.86058" lon="6.52961">
        <ele>1881</ele>
        <time>2018-12-18T11:40:42Z</time>
      </trkpt>
      <trkpt lat="45.86052" lon="6.5296">
        <ele>1883</ele>
        <time>2018-12-18T11:40:50Z</time>
      </trkpt>
      <trkpt lat="45.86047" lon="6.52962">
        <ele>1884</ele>
        <time>2018-12-18T11:41:00Z</time>
      </trkpt>
      <trkpt lat="45.86045" lon="6.52969">
        <ele>1886</ele>
        <time>2018-12-18T11:41:10Z</time>
      </trkpt>
      <trkpt lat="45.86045" lon="6.52977">
        <ele>1886</ele>
        <time>2018-12-18T11:41:20Z</time>
      </trkpt>
      <trkpt lat="45.86048" lon="6.52985">
        <ele>1887</ele>
        <time>2018-12-18T11:41:26Z</time>
      </trkpt>
      <trkpt lat="45.8605" lon="6.53003">
        <ele>1888</ele>
        <time>2018-12-18T11:41:43Z</time>
      </trkpt>
      <trkpt lat="45.86059" lon="6.53022">
        <ele>1889</ele>
        <time>2018-12-18T11:42:01Z</time>
      </trkpt>
      <trkpt lat="45.86063" lon="6.53028">
        <ele>1890</ele>
        <time>2018-12-18T11:42:07Z</time>
      </trkpt>
      <trkpt lat="45.86066" lon="6.53039">
        <ele>1890</ele>
        <time>2018-12-18T11:42:15Z</time>
      </trkpt>
      <trkpt lat="45.86072" lon="6.53047">
        <ele>1891</ele>
        <time>2018-12-18T11:42:24Z</time>
      </trkpt>
      <trkpt lat="45.86074" lon="6.53055">
        <ele>1891</ele>
        <time>2018-12-18T11:42:31Z</time>
      </trkpt>
      <trkpt lat="45.86078" lon="6.53064">
        <ele>1892</ele>
        <time>2018-12-18T11:42:40Z</time>
      </trkpt>
      <trkpt lat="45.86082" lon="6.53073">
        <ele>1893</ele>
        <time>2018-12-18T11:42:50Z</time>
      </trkpt>
      <trkpt lat="45.86086" lon="6.5308">
        <ele>1895</ele>
        <time>2018-12-18T11:42:59Z</time>
      </trkpt>
      <trkpt lat="45.86092" lon="6.53083">
        <ele>1896</ele>
        <time>2018-12-18T11:43:07Z</time>
      </trkpt>
      <trkpt lat="45.86096" lon="6.53089">
        <ele>1897</ele>
        <time>2018-12-18T11:43:16Z</time>
      </trkpt>
      <trkpt lat="45.861" lon="6.53095">
        <ele>1898</ele>
        <time>2018-12-18T11:43:22Z</time>
      </trkpt>
      <trkpt lat="45.86105" lon="6.53104">
        <ele>1899</ele>
        <time>2018-12-18T11:43:33Z</time>
      </trkpt>
      <trkpt lat="45.86108" lon="6.53111">
        <ele>1900</ele>
        <time>2018-12-18T11:43:39Z</time>
      </trkpt>
      <trkpt lat="45.86114" lon="6.53127">
        <ele>1902</ele>
        <time>2018-12-18T11:43:57Z</time>
      </trkpt>
      <trkpt lat="45.86119" lon="6.53132">
        <ele>1903</ele>
        <time>2018-12-18T11:44:05Z</time>
      </trkpt>
      <trkpt lat="45.86123" lon="6.53136">
        <ele>1904</ele>
        <time>2018-12-18T11:44:12Z</time>
      </trkpt>
      <trkpt lat="45.86125" lon="6.53144">
        <ele>1905</ele>
        <time>2018-12-18T11:44:19Z</time>
      </trkpt>
      <trkpt lat="45.8613" lon="6.5315">
        <ele>1906</ele>
        <time>2018-12-18T11:44:28Z</time>
      </trkpt>
      <trkpt lat="45.86138" lon="6.53162">
        <ele>1909</ele>
        <time>2018-12-18T11:44:44Z</time>
      </trkpt>
      <trkpt lat="45.86146" lon="6.53175">
        <ele>1910</ele>
        <time>2018-12-18T11:44:57Z</time>
      </trkpt>
      <trkpt lat="45.86148" lon="6.53186">
        <ele>1911</ele>
        <time>2018-12-18T11:45:05Z</time>
      </trkpt>
      <trkpt lat="45.86153" lon="6.53202">
        <ele>1913</ele>
        <time>2018-12-18T11:45:17Z</time>
      </trkpt>
      <trkpt lat="45.86157" lon="6.53208">
        <ele>1914</ele>
        <time>2018-12-18T11:45:24Z</time>
      </trkpt>
      <trkpt lat="45.86161" lon="6.53214">
        <ele>1915</ele>
        <time>2018-12-18T11:45:31Z</time>
      </trkpt>
      <trkpt lat="45.86164" lon="6.53222">
        <ele>1916</ele>
        <time>2018-12-18T11:45:37Z</time>
      </trkpt>
      <trkpt lat="45.86163" lon="6.53231">
        <ele>1917</ele>
        <time>2018-12-18T11:45:43Z</time>
      </trkpt>
      <trkpt lat="45.8616" lon="6.5324">
        <ele>1919</ele>
        <time>2018-12-18T11:45:59Z</time>
      </trkpt>
      <trkpt lat="45.86158" lon="6.53235">
        <ele>1925</ele>
        <time>2018-12-18T11:47:21Z</time>
      </trkpt>
      <trkpt lat="45.86154" lon="6.53245">
        <ele>1927</ele>
        <time>2018-12-18T11:50:26Z</time>
      </trkpt>
      <trkpt lat="45.86157" lon="6.53244">
        <ele>1927</ele>
        <time>2018-12-18T12:25:23Z</time>
      </trkpt>
      <trkpt lat="45.86157" lon="6.53244">
        <ele>1928</ele>
        <time>2018-12-18T12:25:24Z</time>
      </trkpt>
      <trkpt lat="45.86166" lon="6.53236">
        <ele>1926</ele>
        <time>2018-12-18T12:25:53Z</time>
      </trkpt>
      <trkpt lat="45.86177" lon="6.53234">
        <ele>1920</ele>
        <time>2018-12-18T12:26:04Z</time>
      </trkpt>
      <trkpt lat="45.86187" lon="6.53227">
        <ele>1919</ele>
        <time>2018-12-18T12:27:04Z</time>
      </trkpt>
      <trkpt lat="45.86203" lon="6.53228">
        <ele>1919</ele>
        <time>2018-12-18T12:27:08Z</time>
      </trkpt>
      <trkpt lat="45.86212" lon="6.53229">
        <ele>1919</ele>
        <time>2018-12-18T12:27:19Z</time>
      </trkpt>
      <trkpt lat="45.86219" lon="6.5321">
        <ele>1919</ele>
        <time>2018-12-18T12:27:31Z</time>
      </trkpt>
      <trkpt lat="45.86233" lon="6.53218">
        <ele>1917</ele>
        <time>2018-12-18T12:28:40Z</time>
      </trkpt>
      <trkpt lat="45.86249" lon="6.53219">
        <ele>1917</ele>
        <time>2018-12-18T12:28:45Z</time>
      </trkpt>
      <trkpt lat="45.86267" lon="6.53225">
        <ele>1914</ele>
        <time>2018-12-18T12:28:49Z</time>
      </trkpt>
      <trkpt lat="45.86282" lon="6.5323">
        <ele>1907</ele>
        <time>2018-12-18T12:28:52Z</time>
      </trkpt>
      <trkpt lat="45.86297" lon="6.53233">
        <ele>1905</ele>
        <time>2018-12-18T12:28:55Z</time>
      </trkpt>
      <trkpt lat="45.8632" lon="6.5325">
        <ele>1900</ele>
        <time>2018-12-18T12:29:04Z</time>
      </trkpt>
      <trkpt lat="45.86335" lon="6.53246">
        <ele>1897</ele>
        <time>2018-12-18T12:29:08Z</time>
      </trkpt>
      <trkpt lat="45.8635" lon="6.53243">
        <ele>1894</ele>
        <time>2018-12-18T12:29:14Z</time>
      </trkpt>
      <trkpt lat="45.86366" lon="6.53242">
        <ele>1891</ele>
        <time>2018-12-18T12:29:18Z</time>
      </trkpt>
      <trkpt lat="45.86384" lon="6.53236">
        <ele>1882</ele>
        <time>2018-12-18T12:29:22Z</time>
      </trkpt>
      <trkpt lat="45.86395" lon="6.53236">
        <ele>1880</ele>
        <time>2018-12-18T12:29:24Z</time>
      </trkpt>
      <trkpt lat="45.86406" lon="6.53236">
        <ele>1877</ele>
        <time>2018-12-18T12:29:26Z</time>
      </trkpt>
      <trkpt lat="45.86431" lon="6.53236">
        <ele>1870</ele>
        <time>2018-12-18T12:29:31Z</time>
      </trkpt>
      <trkpt lat="45.86441" lon="6.5323">
        <ele>1865</ele>
        <time>2018-12-18T12:29:34Z</time>
      </trkpt>
      <trkpt lat="45.86466" lon="6.53211">
        <ele>1851</ele>
        <time>2018-12-18T12:29:40Z</time>
      </trkpt>
      <trkpt lat="45.86477" lon="6.53207">
        <ele>1843</ele>
        <time>2018-12-18T12:29:43Z</time>
      </trkpt>
      <trkpt lat="45.86486" lon="6.53213">
        <ele>1836</ele>
        <time>2018-12-18T12:29:59Z</time>
      </trkpt>
      <trkpt lat="45.86501" lon="6.53208">
        <ele>1833</ele>
        <time>2018-12-18T12:30:34Z</time>
      </trkpt>
      <trkpt lat="45.86523" lon="6.53206">
        <ele>1831</ele>
        <time>2018-12-18T12:30:42Z</time>
      </trkpt>
      <trkpt lat="45.86535" lon="6.53207">
        <ele>1829</ele>
        <time>2018-12-18T12:30:46Z</time>
      </trkpt>
      <trkpt lat="45.86554" lon="6.53209">
        <ele>1819</ele>
        <time>2018-12-18T12:30:50Z</time>
      </trkpt>
      <trkpt lat="45.86567" lon="6.53219">
        <ele>1815</ele>
        <time>2018-12-18T12:30:54Z</time>
      </trkpt>
      <trkpt lat="45.86591" lon="6.53238">
        <ele>1812</ele>
        <time>2018-12-18T12:31:03Z</time>
      </trkpt>
      <trkpt lat="45.86607" lon="6.53251">
        <ele>1805</ele>
        <time>2018-12-18T12:31:07Z</time>
      </trkpt>
      <trkpt lat="45.86623" lon="6.53262">
        <ele>1802</ele>
        <time>2018-12-18T12:31:10Z</time>
      </trkpt>
      <trkpt lat="45.86637" lon="6.53273">
        <ele>1800</ele>
        <time>2018-12-18T12:31:14Z</time>
      </trkpt>
      <trkpt lat="45.86652" lon="6.53281">
        <ele>1794</ele>
        <time>2018-12-18T12:31:18Z</time>
      </trkpt>
      <trkpt lat="45.86686" lon="6.53296">
        <ele>1790</ele>
        <time>2018-12-18T12:31:27Z</time>
      </trkpt>
      <trkpt lat="45.86702" lon="6.53303">
        <ele>1788</ele>
        <time>2018-12-18T12:31:31Z</time>
      </trkpt>
      <trkpt lat="45.86713" lon="6.5331">
        <ele>1784</ele>
        <time>2018-12-18T12:31:34Z</time>
      </trkpt>
      <trkpt lat="45.86726" lon="6.53322">
        <ele>1781</ele>
        <time>2018-12-18T12:31:37Z</time>
      </trkpt>
      <trkpt lat="45.86735" lon="6.53331">
        <ele>1777</ele>
        <time>2018-12-18T12:31:39Z</time>
      </trkpt>
      <trkpt lat="45.86748" lon="6.53341">
        <ele>1775</ele>
        <time>2018-12-18T12:31:42Z</time>
      </trkpt>
      <trkpt lat="45.86771" lon="6.53363">
        <ele>1769</ele>
        <time>2018-12-18T12:31:49Z</time>
      </trkpt>
      <trkpt lat="45.86794" lon="6.53388">
        <ele>1765</ele>
        <time>2018-12-18T12:32:02Z</time>
      </trkpt>
      <trkpt lat="45.86814" lon="6.534">
        <ele>1761</ele>
        <time>2018-12-18T12:32:16Z</time>
      </trkpt>
      <trkpt lat="45.86839" lon="6.53409">
        <ele>1760</ele>
        <time>2018-12-18T12:32:27Z</time>
      </trkpt>
      <trkpt lat="45.86852" lon="6.5342">
        <ele>1760</ele>
        <time>2018-12-18T12:32:32Z</time>
      </trkpt>
      <trkpt lat="45.86866" lon="6.5343">
        <ele>1759</ele>
        <time>2018-12-18T12:32:37Z</time>
      </trkpt>
      <trkpt lat="45.86878" lon="6.53443">
        <ele>1756</ele>
        <time>2018-12-18T12:32:44Z</time>
      </trkpt>
      <trkpt lat="45.8689" lon="6.53452">
        <ele>1754</ele>
        <time>2018-12-18T12:32:51Z</time>
      </trkpt>
      <trkpt lat="45.86905" lon="6.53453">
        <ele>1751</ele>
        <time>2018-12-18T12:32:55Z</time>
      </trkpt>
      <trkpt lat="45.86919" lon="6.5346">
        <ele>1749</ele>
        <time>2018-12-18T12:32:58Z</time>
      </trkpt>
      <trkpt lat="45.86945" lon="6.53475">
        <ele>1744</ele>
        <time>2018-12-18T12:33:06Z</time>
      </trkpt>
      <trkpt lat="45.86956" lon="6.53478">
        <ele>1741</ele>
        <time>2018-12-18T12:33:12Z</time>
      </trkpt>
      <trkpt lat="45.86959" lon="6.53469">
        <ele>1740</ele>
        <time>2018-12-18T12:34:00Z</time>
      </trkpt>
      <trkpt lat="45.86972" lon="6.53468">
        <ele>1740</ele>
        <time>2018-12-18T12:34:14Z</time>
      </trkpt>
      <trkpt lat="45.86995" lon="6.53486">
        <ele>1739</ele>
        <time>2018-12-18T12:34:23Z</time>
      </trkpt>
      <trkpt lat="45.87006" lon="6.53496">
        <ele>1737</ele>
        <time>2018-12-18T12:34:30Z</time>
      </trkpt>
      <trkpt lat="45.87017" lon="6.53501">
        <ele>1736</ele>
        <time>2018-12-18T12:34:34Z</time>
      </trkpt>
      <trkpt lat="45.87041" lon="6.53514">
        <ele>1722</ele>
        <time>2018-12-18T12:34:41Z</time>
      </trkpt>
      <trkpt lat="45.87053" lon="6.53519">
        <ele>1719</ele>
        <time>2018-12-18T12:34:45Z</time>
      </trkpt>
      <trkpt lat="45.87077" lon="6.53533">
        <ele>1717</ele>
        <time>2018-12-18T12:34:55Z</time>
      </trkpt>
      <trkpt lat="45.87085" lon="6.53538">
        <ele>1712</ele>
        <time>2018-12-18T12:36:07Z</time>
      </trkpt>
      <trkpt lat="45.87098" lon="6.5354">
        <ele>1706</ele>
        <time>2018-12-18T12:36:20Z</time>
      </trkpt>
      <trkpt lat="45.87105" lon="6.53556">
        <ele>1701</ele>
        <time>2018-12-18T12:36:24Z</time>
      </trkpt>
      <trkpt lat="45.87107" lon="6.53572">
        <ele>1699</ele>
        <time>2018-12-18T12:36:26Z</time>
      </trkpt>
      <trkpt lat="45.87112" lon="6.53592">
        <ele>1697</ele>
        <time>2018-12-18T12:36:30Z</time>
      </trkpt>
      <trkpt lat="45.87117" lon="6.53607">
        <ele>1691</ele>
        <time>2018-12-18T12:36:33Z</time>
      </trkpt>
      <trkpt lat="45.87125" lon="6.53627">
        <ele>1686</ele>
        <time>2018-12-18T12:36:38Z</time>
      </trkpt>
      <trkpt lat="45.87131" lon="6.53642">
        <ele>1682</ele>
        <time>2018-12-18T12:36:41Z</time>
      </trkpt>
      <trkpt lat="45.87139" lon="6.53651">
        <ele>1680</ele>
        <time>2018-12-18T12:36:45Z</time>
      </trkpt>
      <trkpt lat="45.87146" lon="6.53658">
        <ele>1676</ele>
        <time>2018-12-18T12:36:48Z</time>
      </trkpt>
      <trkpt lat="45.87158" lon="6.53657">
        <ele>1674</ele>
        <time>2018-12-18T12:36:51Z</time>
      </trkpt>
      <trkpt lat="45.8718" lon="6.53662">
        <ele>1662</ele>
        <time>2018-12-18T12:36:58Z</time>
      </trkpt>
      <trkpt lat="45.87187" lon="6.53652">
        <ele>1655</ele>
        <time>2018-12-18T12:37:11Z</time>
      </trkpt>
      <trkpt lat="45.87198" lon="6.53649">
        <ele>1649</ele>
        <time>2018-12-18T12:37:37Z</time>
      </trkpt>
      <trkpt lat="45.8721" lon="6.53644">
        <ele>1644</ele>
        <time>2018-12-18T12:37:41Z</time>
      </trkpt>
      <trkpt lat="45.87221" lon="6.53637">
        <ele>1633</ele>
        <time>2018-12-18T12:37:44Z</time>
      </trkpt>
      <trkpt lat="45.87251" lon="6.53631">
        <ele>1618</ele>
        <time>2018-12-18T12:37:50Z</time>
      </trkpt>
      <trkpt lat="45.87255" lon="6.53615">
        <ele>1610</ele>
        <time>2018-12-18T12:38:02Z</time>
      </trkpt>
      <trkpt lat="45.87265" lon="6.53596">
        <ele>1609</ele>
        <time>2018-12-18T12:38:42Z</time>
      </trkpt>
      <trkpt lat="45.87288" lon="6.53564">
        <ele>1601</ele>
        <time>2018-12-18T12:38:50Z</time>
      </trkpt>
      <trkpt lat="45.87297" lon="6.53548">
        <ele>1600</ele>
        <time>2018-12-18T12:38:53Z</time>
      </trkpt>
      <trkpt lat="45.87305" lon="6.53531">
        <ele>1598</ele>
        <time>2018-12-18T12:38:56Z</time>
      </trkpt>
      <trkpt lat="45.87314" lon="6.53517">
        <ele>1594</ele>
        <time>2018-12-18T12:38:59Z</time>
      </trkpt>
      <trkpt lat="45.87338" lon="6.53476">
        <ele>1581</ele>
        <time>2018-12-18T12:39:06Z</time>
      </trkpt>
      <trkpt lat="45.87346" lon="6.53466">
        <ele>1578</ele>
        <time>2018-12-18T12:39:08Z</time>
      </trkpt>
      <trkpt lat="45.87354" lon="6.53457">
        <ele>1576</ele>
        <time>2018-12-18T12:39:10Z</time>
      </trkpt>
      <trkpt lat="45.87369" lon="6.53441">
        <ele>1571</ele>
        <time>2018-12-18T12:39:14Z</time>
      </trkpt>
      <trkpt lat="45.87379" lon="6.53422">
        <ele>1567</ele>
        <time>2018-12-18T12:39:18Z</time>
      </trkpt>
      <trkpt lat="45.87384" lon="6.53413">
        <ele>1564</ele>
        <time>2018-12-18T12:39:25Z</time>
      </trkpt>
      <trkpt lat="45.87387" lon="6.53401">
        <ele>1563</ele>
        <time>2018-12-18T12:41:17Z</time>
      </trkpt>
      <trkpt lat="45.87392" lon="6.53369">
        <ele>1558</ele>
        <time>2018-12-18T12:41:24Z</time>
      </trkpt>
      <trkpt lat="45.87396" lon="6.53351">
        <ele>1553</ele>
        <time>2018-12-18T12:41:27Z</time>
      </trkpt>
      <trkpt lat="45.874" lon="6.5333">
        <ele>1548</ele>
        <time>2018-12-18T12:41:31Z</time>
      </trkpt>
      <trkpt lat="45.87402" lon="6.53318">
        <ele>1547</ele>
        <time>2018-12-18T12:41:33Z</time>
      </trkpt>
      <trkpt lat="45.87408" lon="6.53294">
        <ele>1543</ele>
        <time>2018-12-18T12:41:37Z</time>
      </trkpt>
      <trkpt lat="45.87412" lon="6.53283">
        <ele>1541</ele>
        <time>2018-12-18T12:41:39Z</time>
      </trkpt>
      <trkpt lat="45.87419" lon="6.53243">
        <ele>1537</ele>
        <time>2018-12-18T12:41:45Z</time>
      </trkpt>
      <trkpt lat="45.87411" lon="6.53231">
        <ele>1535</ele>
        <time>2018-12-18T12:41:49Z</time>
      </trkpt>
      <trkpt lat="45.87417" lon="6.53217">
        <ele>1534</ele>
        <time>2018-12-18T12:43:14Z</time>
      </trkpt>
      <trkpt lat="45.87409" lon="6.53203">
        <ele>1532</ele>
        <time>2018-12-18T12:43:18Z</time>
      </trkpt>
      <trkpt lat="45.87397" lon="6.53186">
        <ele>1531</ele>
        <time>2018-12-18T12:43:23Z</time>
      </trkpt>
      <trkpt lat="45.87391" lon="6.5317">
        <ele>1525</ele>
        <time>2018-12-18T12:43:27Z</time>
      </trkpt>
      <trkpt lat="45.87386" lon="6.53154">
        <ele>1523</ele>
        <time>2018-12-18T12:43:30Z</time>
      </trkpt>
      <trkpt lat="45.87381" lon="6.53138">
        <ele>1519</ele>
        <time>2018-12-18T12:43:33Z</time>
      </trkpt>
      <trkpt lat="45.87378" lon="6.53125">
        <ele>1518</ele>
        <time>2018-12-18T12:43:36Z</time>
      </trkpt>
      <trkpt lat="45.87373" lon="6.53107">
        <ele>1515</ele>
        <time>2018-12-18T12:43:40Z</time>
      </trkpt>
      <trkpt lat="45.87369" lon="6.53083">
        <ele>1508</ele>
        <time>2018-12-18T12:43:44Z</time>
      </trkpt>
      <trkpt lat="45.87362" lon="6.53066">
        <ele>1504</ele>
        <time>2018-12-18T12:43:49Z</time>
      </trkpt>
      <trkpt lat="45.87361" lon="6.53046">
        <ele>1498</ele>
        <time>2018-12-18T12:43:53Z</time>
      </trkpt>
      <trkpt lat="45.87355" lon="6.53033">
        <ele>1490</ele>
        <time>2018-12-18T12:43:55Z</time>
      </trkpt>
      <trkpt lat="45.87346" lon="6.53017">
        <ele>1487</ele>
        <time>2018-12-18T12:43:57Z</time>
      </trkpt>
      <trkpt lat="45.87344" lon="6.52999">
        <ele>1483</ele>
        <time>2018-12-18T12:43:59Z</time>
      </trkpt>
      <trkpt lat="45.8736" lon="6.52999">
        <ele>1480</ele>
        <time>2018-12-18T12:44:33Z</time>
      </trkpt>
      <trkpt lat="45.87379" lon="6.52998">
        <ele>1477</ele>
        <time>2018-12-18T12:44:40Z</time>
      </trkpt>
      <trkpt lat="45.87392" lon="6.52995">
        <ele>1476</ele>
        <time>2018-12-18T12:44:44Z</time>
      </trkpt>
      <trkpt lat="45.87409" lon="6.52996">
        <ele>1469</ele>
        <time>2018-12-18T12:44:48Z</time>
      </trkpt>
      <trkpt lat="45.87431" lon="6.52986">
        <ele>1464</ele>
        <time>2018-12-18T12:44:55Z</time>
      </trkpt>
      <trkpt lat="45.87448" lon="6.52993">
        <ele>1454</ele>
        <time>2018-12-18T12:44:59Z</time>
      </trkpt>
      <trkpt lat="45.87462" lon="6.52991">
        <ele>1452</ele>
        <time>2018-12-18T12:45:02Z</time>
      </trkpt>
      <trkpt lat="45.87472" lon="6.52997">
        <ele>1447</ele>
        <time>2018-12-18T12:45:05Z</time>
      </trkpt>
      <trkpt lat="45.87481" lon="6.53006">
        <ele>1445</ele>
        <time>2018-12-18T12:45:08Z</time>
      </trkpt>
      <trkpt lat="45.87496" lon="6.5301">
        <ele>1442</ele>
        <time>2018-12-18T12:45:15Z</time>
      </trkpt>
      <trkpt lat="45.87509" lon="6.53016">
        <ele>1440</ele>
        <time>2018-12-18T12:45:48Z</time>
      </trkpt>
      <trkpt lat="45.87522" lon="6.53027">
        <ele>1439</ele>
        <time>2018-12-18T12:45:55Z</time>
      </trkpt>
      <trkpt lat="45.87536" lon="6.53032">
        <ele>1436</ele>
        <time>2018-12-18T12:46:15Z</time>
      </trkpt>
      <trkpt lat="45.87547" lon="6.53033">
        <ele>1435</ele>
        <time>2018-12-18T12:46:18Z</time>
      </trkpt>
      <trkpt lat="45.87561" lon="6.53038">
        <ele>1428</ele>
        <time>2018-12-18T12:46:25Z</time>
      </trkpt>
      <trkpt lat="45.87573" lon="6.53032">
        <ele>1424</ele>
        <time>2018-12-18T12:46:33Z</time>
      </trkpt>
      <trkpt lat="45.87581" lon="6.53035">
        <ele>1421</ele>
        <time>2018-12-18T12:46:36Z</time>
      </trkpt>
      <trkpt lat="45.87589" lon="6.53034">
        <ele>1419</ele>
        <time>2018-12-18T12:46:39Z</time>
      </trkpt>
      <trkpt lat="45.87597" lon="6.53038">
        <ele>1417</ele>
        <time>2018-12-18T12:46:42Z</time>
      </trkpt>
      <trkpt lat="45.87608" lon="6.53043">
        <ele>1414</ele>
        <time>2018-12-18T12:47:06Z</time>
      </trkpt>
      <trkpt lat="45.87619" lon="6.53042">
        <ele>1410</ele>
        <time>2018-12-18T12:47:11Z</time>
      </trkpt>
      <trkpt lat="45.87632" lon="6.53044">
        <ele>1406</ele>
        <time>2018-12-18T12:47:40Z</time>
      </trkpt>
      <trkpt lat="45.87642" lon="6.53046">
        <ele>1403</ele>
        <time>2018-12-18T12:47:46Z</time>
      </trkpt>
      <trkpt lat="45.87641" lon="6.53022">
        <ele>1396</ele>
        <time>2018-12-18T12:47:54Z</time>
      </trkpt>
      <trkpt lat="45.87657" lon="6.53017">
        <ele>1381</ele>
        <time>2018-12-18T12:48:00Z</time>
      </trkpt>
      <trkpt lat="45.87668" lon="6.53003">
        <ele>1372</ele>
        <time>2018-12-18T12:48:06Z</time>
      </trkpt>
      <trkpt lat="45.8768" lon="6.52985">
        <ele>1368</ele>
        <time>2018-12-18T12:48:10Z</time>
      </trkpt>
      <trkpt lat="45.87684" lon="6.52971">
        <ele>1365</ele>
        <time>2018-12-18T12:48:15Z</time>
      </trkpt>
      <trkpt lat="45.87685" lon="6.52955">
        <ele>1365</ele>
        <time>2018-12-18T12:48:20Z</time>
      </trkpt>
      <trkpt lat="45.87691" lon="6.52934">
        <ele>1362</ele>
        <time>2018-12-18T12:48:25Z</time>
      </trkpt>
      <trkpt lat="45.87688" lon="6.52914">
        <ele>1359</ele>
        <time>2018-12-18T12:48:38Z</time>
      </trkpt>
      <trkpt lat="45.87699" lon="6.52906">
        <ele>1357</ele>
        <time>2018-12-18T12:49:10Z</time>
      </trkpt>
      <trkpt lat="45.87709" lon="6.52897">
        <ele>1354</ele>
        <time>2018-12-18T12:49:17Z</time>
      </trkpt>
      <trkpt lat="45.87717" lon="6.52886">
        <ele>1351</ele>
        <time>2018-12-18T12:49:23Z</time>
      </trkpt>
      <trkpt lat="45.87727" lon="6.52875">
        <ele>1348</ele>
        <time>2018-12-18T12:49:27Z</time>
      </trkpt>
      <trkpt lat="45.87737" lon="6.52867">
        <ele>1343</ele>
        <time>2018-12-18T12:49:35Z</time>
      </trkpt>
      <trkpt lat="45.87746" lon="6.52859">
        <ele>1332</ele>
        <time>2018-12-18T12:50:14Z</time>
      </trkpt>
      <trkpt lat="45.87747" lon="6.52836">
        <ele>1330</ele>
        <time>2018-12-18T12:50:20Z</time>
      </trkpt>
      <trkpt lat="45.8775" lon="6.52818">
        <ele>1322</ele>
        <time>2018-12-18T12:50:28Z</time>
      </trkpt>
      <trkpt lat="45.87763" lon="6.5281">
        <ele>1318</ele>
        <time>2018-12-18T12:50:37Z</time>
      </trkpt>
      <trkpt lat="45.87774" lon="6.52795">
        <ele>1307</ele>
        <time>2018-12-18T12:50:47Z</time>
      </trkpt>
      <trkpt lat="45.87779" lon="6.52781">
        <ele>1301</ele>
        <time>2018-12-18T12:51:03Z</time>
      </trkpt>
      <trkpt lat="45.87789" lon="6.52772">
        <ele>1296</ele>
        <time>2018-12-18T12:51:18Z</time>
      </trkpt>
      <trkpt lat="45.87799" lon="6.52781">
        <ele>1295</ele>
        <time>2018-12-18T12:51:22Z</time>
      </trkpt>
      <trkpt lat="45.87808" lon="6.52773">
        <ele>1285</ele>
        <time>2018-12-18T12:51:30Z</time>
      </trkpt>
      <trkpt lat="45.87817" lon="6.52763">
        <ele>1283</ele>
        <time>2018-12-18T12:51:36Z</time>
      </trkpt>
      <trkpt lat="45.87829" lon="6.52769">
        <ele>1274</ele>
        <time>2018-12-18T12:51:45Z</time>
      </trkpt>
      <trkpt lat="45.87839" lon="6.52762">
        <ele>1272</ele>
        <time>2018-12-18T12:51:52Z</time>
      </trkpt>
      <trkpt lat="45.87848" lon="6.52764">
        <ele>1266</ele>
        <time>2018-12-18T12:51:58Z</time>
      </trkpt>
      <trkpt lat="45.87858" lon="6.52756">
        <ele>1263</ele>
        <time>2018-12-18T12:52:02Z</time>
      </trkpt>
      <trkpt lat="45.8786" lon="6.5274">
        <ele>1257</ele>
        <time>2018-12-18T12:52:08Z</time>
      </trkpt>
      <trkpt lat="45.87863" lon="6.52698">
        <ele>1238</ele>
        <time>2018-12-18T12:52:13Z</time>
      </trkpt>
      <trkpt lat="45.87858" lon="6.52678">
        <ele>1234</ele>
        <time>2018-12-18T12:52:15Z</time>
      </trkpt>
      <trkpt lat="45.87846" lon="6.52644">
        <ele>1227</ele>
        <time>2018-12-18T12:52:19Z</time>
      </trkpt>
      <trkpt lat="45.87838" lon="6.52624">
        <ele>1223</ele>
        <time>2018-12-18T12:52:22Z</time>
      </trkpt>
      <trkpt lat="45.87838" lon="6.52606">
        <ele>1221</ele>
        <time>2018-12-18T12:52:24Z</time>
      </trkpt>
      <trkpt lat="45.87844" lon="6.52577">
        <ele>1220</ele>
        <time>2018-12-18T12:52:31Z</time>
      </trkpt>
      <trkpt lat="45.87847" lon="6.52562">
        <ele>1220</ele>
        <time>2018-12-18T12:52:44Z</time>
      </trkpt>
      <trkpt lat="45.87846" lon="6.52544">
        <ele>1219</ele>
        <time>2018-12-18T12:52:59Z</time>
      </trkpt>
      <trkpt lat="45.87857" lon="6.52535">
        <ele>1218</ele>
        <time>2018-12-18T12:53:07Z</time>
      </trkpt>
    </trkseg>
  </trk>
</gpx>